2015 Spa Girl Tri - Bastrop -Results

2015 Spa Girl Tri - Bastrop -Results
Overall Swim
--400m--
T1 Bike
--10 Miles--
T2 Run
--2 Miles--
AG
Pos
Overall
Pos
Name Race No Time AG
Pos
Overall
Pos
Time Pace AG
Pos
Overall
Pos
Time AG
Pos
Overall
Pos
Time Pace AG
Pos
Overall
Pos
Time AG
Pos
Overall
Pos
Time Pace
Ages 19 and Under
1 24 Arianna CADEDDU 161 01:04:36 2 14 1:55 sec/100m 00:05:45 2 55 00:01:43 1 63 00:38:00 15.8 m/hr 1 3 00:00:56 2 87 00:18:10 9:05 min/m
2 85 Julia NGUYEN 761 01:09:45 24 730 2:51 sec/100m 00:08:33 6 128 00:02:09 2 160 00:41:07 14.6 m/hr 3 48 00:01:23 1 26 00:16:31 8:15 min/m
3 134 Lulu WOLFSKILL 893 01:12:13 1 13 1:55 sec/100m 00:05:45 11 266 00:02:55 3 179 00:41:38 14.4 m/hr 22 551 00:03:09 3 120 00:18:44 9:22 min/m
4 172 Allison HENTGES 60 01:14:05 13 225 2:14 sec/100m 00:06:42 5 101 00:02:02 4 183 00:41:44 14.4 m/hr 14 353 00:02:21 8 277 00:21:13 10:36 min/m
5 311 Alyssa COURY 671 01:21:26 19 388 2:20 sec/100m 00:07:02 21 642 00:05:02 5 333 00:46:01 13.0 m/hr 16 405 00:02:30 7 256 00:20:48 10:24 min/m
6 359 Emma JOHNSON 228 01:23:52 4 65 2:04 sec/100m 00:06:12 10 255 00:02:49 10 547 00:53:50 11.1 m/hr 12 302 00:02:13 4 124 00:18:47 9:23 min/m
7 409 Katherine SHACKELFORD 468 01:26:31 11 204 2:13 sec/100m 00:06:40 7 203 00:02:34 8 431 00:49:22 12.2 m/hr 6 181 00:01:53 13 513 00:26:00 13:00 min/m
8 413 Randi Eileen STOKES 326 01:26:39 14 241 2:14 sec/100m 00:06:44 8 204 00:02:34 7 430 00:49:22 12.2 m/hr 5 180 00:01:53 14 521 00:26:03 13:01 min/m
9 427 Elli ABEL 140 01:27:19 5 66 2:04 sec/100m 00:06:12 14 358 00:03:23 9 519 00:52:49 11.4 m/hr 9 253 00:02:04 10 367 00:22:49 11:24 min/m
10 477 Maya CASTRO 592 01:30:29 7 112 2:08 sec/100m 00:06:24 13 341 00:03:19 17 650 00:59:22 10.1 m/hr 2 32 00:01:17 6 211 00:20:04 10:02 min/m
11 500 Sarah SCULLY 313 01:31:22 23 670 2:41 sec/100m 00:08:03 15 365 00:03:25 12 596 00:56:12 10.7 m/hr 11 296 00:02:12 9 297 00:21:29 10:44 min/m
12 521 Jenna COOK 173 01:32:44 3 56 2:02 sec/100m 00:06:08 20 572 00:04:33 11 558 00:54:18 11.0 m/hr 19 471 00:02:45 12 472 00:24:59 12:29 min/m
13 563 Madison BROWN 613 01:35:43 27 786 4:19 sec/100m 00:12:57 19 511 00:04:07 13 607 00:56:57 10.5 m/hr 4 88 00:01:37 5 209 00:20:03 10:01 min/m
14 590 Kali CAMACHO 76 01:37:39 20 459 2:24 sec/100m 00:07:12 1 32 00:01:32 14 609 00:57:00 10.5 m/hr 15 404 00:02:30 21 645 00:29:24 14:42 min/m
15 596 Elisa LLANES 821 01:38:04 26 784 4:03 sec/100m 00:12:10 12 267 00:02:55 6 370 00:47:01 12.8 m/hr 25 695 00:04:16 25 702 00:31:40 15:50 min/m
16 629 Naomi KRUGER 45 01:42:10 16 322 2:17 sec/100m 00:06:53 17 402 00:03:35 18 690 01:02:32 9.6 m/hr 8 224 00:01:59 19 567 00:27:09 13:34 min/m
17 635 Katie OWENS 275 01:42:37 8 146 2:10 sec/100m 00:06:31 3 70 00:01:49 19 691 01:02:33 9.6 m/hr 26 726 00:04:43 16 554 00:26:58 13:29 min/m
18 645 Kirsten HESELMEYER 463 01:43:18 6 77 2:05 sec/100m 00:06:16 18 471 00:03:53 16 639 00:58:32 10.2 m/hr 23 555 00:03:10 24 697 00:31:25 15:42 min/m
19 694 Naya JAYARAM 118 01:49:05 25 750 3:01 sec/100m 00:09:03 4 86 00:01:55 24 749 01:11:07 8.4 m/hr 21 549 00:03:08 11 423 00:23:50 11:55 min/m
20 705 Bella KRAFT 973 01:50:47 10 187 2:12 sec/100m 00:06:38 24 670 00:05:21 15 631 00:58:09 10.3 m/hr 27 782 00:13:34 17 557 00:27:03 13:31 min/m
21 706 Madeleine BECKMEIER 149 01:50:58 15 310 2:17 sec/100m 00:06:52 22 660 00:05:17 23 732 01:08:18 8.8 m/hr 24 601 00:03:27 18 559 00:27:03 13:31 min/m
22 715 Hanna ICENHOWER 220 01:52:06 9 156 2:11 sec/100m 00:06:33 9 222 00:02:41 25 761 01:14:21 8.1 m/hr 7 199 00:01:56 15 542 00:26:33 13:16 min/m
23 720 Cc FENZ 805 01:52:54 18 369 2:19 sec/100m 00:06:59 25 693 00:05:43 22 731 01:08:07 8.8 m/hr 10 255 00:02:04 22 670 00:29:58 14:59 min/m
24 741 Alyssa SPARKS 130 01:55:54 22 633 2:37 sec/100m 00:07:51 26 752 00:07:27 21 717 01:06:28 9.0 m/hr 20 545 00:03:06 23 688 00:31:00 15:30 min/m
25 754 Kaley ZAMBRANO 968 01:58:35 12 214 2:13 sec/100m 00:06:41 16 385 00:03:31 20 703 01:04:04 9.4 m/hr 13 336 00:02:18 27 788 00:41:58 20:59 min/m
26 782 Alleyah FORRISTER 740 02:06:44 17 360 2:19 sec/100m 00:06:58 23 665 00:05:18 26 778 01:23:22 7.2 m/hr 17 418 00:02:33 20 616 00:28:30 14:15 min/m
27 792 Katie BROWN 611 02:20:12 21 554 2:30 sec/100m 00:07:31 27 767 00:08:44 27 784 01:28:19 6.8 m/hr 18 449 00:02:40 26 726 00:32:56 16:28 min/m
Ages 20 - 24
1 139 Allison JEFFRIES 225 01:12:30 2 42 2:00 sec/100m 00:06:02 2 120 00:02:07 3 287 00:44:31 13.5 m/hr 2 136 00:01:46 3 82 00:18:02 9:01 min/m
2 188 Ally WILLAUER 582 01:15:18 4 81 2:05 sec/100m 00:06:17 7 440 00:03:44 2 211 00:42:24 14.2 m/hr 1 63 00:01:26 7 289 00:21:25 10:42 min/m
3 229 Renata LEACH 9 01:17:14 3 49 2:01 sec/100m 00:06:05 5 383 00:03:31 5 346 00:46:25 12.9 m/hr 5 349 00:02:20 4 130 00:18:51 9:25 min/m
4 259 Cassie ANDERS 431 01:18:25 7 238 2:14 sec/100m 00:06:43 3 240 00:02:45 4 339 00:46:14 13.0 m/hr 4 204 00:01:56 6 254 00:20:45 10:22 min/m
5 270 Rachel CLARDY 590 01:19:13 13 478 2:25 sec/100m 00:07:16 11 626 00:04:52 1 169 00:41:19 14.5 m/hr 15 778 00:08:49 1 39 00:16:56 8:28 min/m
6 336 Kaitlyn COOK 437 01:22:32 12 419 2:22 sec/100m 00:07:06 12 631 00:04:54 7 391 00:47:36 12.6 m/hr 7 415 00:02:32 5 231 00:20:22 10:11 min/m
7 339 Leeanna HEMMER 602 01:22:39 1 32 1:59 sec/100m 00:05:57 6 426 00:03:42 6 387 00:47:32 12.6 m/hr 14 619 00:03:34 8 313 00:21:52 10:56 min/m
8 436 Kristen RING 835 01:27:46 9 291 2:16 sec/100m 00:06:50 13 648 00:05:05 10 588 00:55:51 10.7 m/hr 10 522 00:02:58 2 42 00:17:00 8:30 min/m
9 476 Lola HERNANDEZ 441 01:30:25 5 110 2:08 sec/100m 00:06:24 9 515 00:04:09 9 532 00:53:04 11.3 m/hr 11 526 00:03:00 9 422 00:23:46 11:53 min/m
10 526 Daniela VALDES-MOELLER 473 01:33:09 6 134 2:10 sec/100m 00:06:30 4 256 00:02:49 8 487 00:51:30 11.7 m/hr 6 360 00:02:22 15 669 00:29:56 14:58 min/m
11 619 Amanda WILLAUER 654 01:40:05 14 527 2:28 sec/100m 00:07:24 14 649 00:05:07 11 618 00:57:27 10.4 m/hr 12 578 00:03:16 11 551 00:26:49 13:24 min/m
12 626 Samantha QUILLMAN 640 01:41:38 15 697 2:46 sec/100m 00:08:18 8 497 00:04:02 12 623 00:57:41 10.4 m/hr 9 517 00:02:57 13 619 00:28:38 14:19 min/m
13 630 Samantha ALLEN 905 01:42:12 10 315 2:17 sec/100m 00:06:53 15 715 00:06:07 13 669 01:00:43 9.9 m/hr 13 581 00:03:17 10 486 00:25:11 12:35 min/m
14 712 Sara SAXON 305 01:51:22 11 366 2:19 sec/100m 00:06:59 10 583 00:04:37 14 728 01:07:56 8.8 m/hr 3 173 00:01:52 14 668 00:29:56 14:58 min/m
15 722 Natalie HADDAD 207 01:53:16 8 290 2:16 sec/100m 00:06:50 1 16 00:01:24 15 763 01:15:00 8.0 m/hr 8 463 00:02:44 12 571 00:27:16 13:38 min/m
Ages 25 - 29
1 23 Lya MORFITT 541 01:04:36 5 58 2:03 sec/100m 00:06:09 4 40 00:01:36 2 99 00:39:01 15.4 m/hr 2 16 00:01:10 2 30 00:16:38 8:19 min/m
2 84 Laura REQUENEZ 557 01:09:42 15 256 2:15 sec/100m 00:06:46 14 237 00:02:44 3 118 00:39:42 15.1 m/hr 9 134 00:01:45 6 116 00:18:42 9:21 min/m
3 110 Colleen TORRES 33 01:10:47 30 777 3:29 sec/100m 00:10:28 11 171 00:02:23 5 152 00:40:55 14.7 m/hr 6 51 00:01:23 1 12 00:15:35 7:47 min/m
4 144 Katie GROSS 684 01:12:49 1 6 1:51 sec/100m 00:05:35 9 129 00:02:09 7 240 00:43:06 13.9 m/hr 1 11 00:01:06 17 258 00:20:50 10:25 min/m
5 150 Tami FLORES 406 01:13:08 9 125 2:09 sec/100m 00:06:27 5 49 00:01:41 4 122 00:39:46 15.1 m/hr 10 140 00:01:47 22 404 00:23:25 11:42 min/m
6 157 Melissa RICHARDS 641 01:13:23 19 363 2:19 sec/100m 00:06:58 3 28 00:01:31 6 196 00:42:05 14.3 m/hr 5 46 00:01:22 20 287 00:21:24 10:42 min/m
7 187 Grace PETRY 69 01:15:18 25 643 2:37 sec/100m 00:07:53 12 225 00:02:42 8 251 00:43:23 13.8 m/hr 4 35 00:01:19 13 199 00:19:59 9:59 min/m
8 212 Kathryn OLIVER 547 01:16:28 18 335 2:18 sec/100m 00:06:55 20 418 00:03:41 12 305 00:45:09 13.3 m/hr 13 191 00:01:55 8 122 00:18:46 9:23 min/m
9 238 Stephanie BRENNAN 908 01:17:32 11 168 2:11 sec/100m 00:06:34 22 464 00:03:52 10 299 00:44:53 13.4 m/hr 12 178 00:01:53 16 226 00:20:18 10:09 min/m
10 242 Ekaterina TSYBOULEVA 875 01:17:35 17 316 2:17 sec/100m 00:06:53 23 530 00:04:12 9 252 00:43:24 13.8 m/hr 26 611 00:03:31 10 173 00:19:34 9:47 min/m
11 262 Laura SCOTT 312 01:18:37 4 51 2:02 sec/100m 00:06:07 30 641 00:05:02 14 343 00:46:19 13.0 m/hr 7 96 00:01:38 9 166 00:19:29 9:44 min/m
12 286 Katherine MANTKOWSKI 249 01:19:51 16 265 2:15 sec/100m 00:06:47 16 379 00:03:30 16 356 00:46:41 12.8 m/hr 14 209 00:01:57 18 262 00:20:54 10:27 min/m
13 289 Molly MARINO 68 01:20:07 26 737 2:54 sec/100m 00:08:43 21 421 00:03:41 11 304 00:45:08 13.3 m/hr 3 23 00:01:14 19 283 00:21:20 10:40 min/m
14 295 Emily SAMPLE 303 01:20:37 27 751 3:02 sec/100m 00:09:06 8 122 00:02:08 1 17 00:35:30 16.9 m/hr 29 694 00:04:15 26 657 00:29:37 14:48 min/m
15 309 Ashley CANNON 17 01:21:23 14 227 2:14 sec/100m 00:06:42 13 231 00:02:43 17 416 00:48:44 12.3 m/hr 25 594 00:03:24 11 187 00:19:49 9:54 min/m
16 319 Jillian FORRESTER 738 01:21:41 2 8 1:53 sec/100m 00:05:39 26 574 00:04:33 19 497 00:51:56 11.6 m/hr 15 260 00:02:05 5 57 00:17:26 8:43 min/m
17 325 Magaly RAMIREZ 554 01:21:55 20 431 2:23 sec/100m 00:07:09 17 407 00:03:37 15 354 00:46:37 12.9 m/hr 30 712 00:04:31 12 196 00:19:58 9:59 min/m
18 373 Jessie RAMIREZ 288 01:24:20 21 492 2:25 sec/100m 00:07:17 1 19 00:01:26 21 581 00:55:26 10.8 m/hr 21 518 00:02:57 4 49 00:17:11 8:35 min/m
19 377 Ali BAUGH 148 01:24:26 22 525 2:28 sec/100m 00:07:24 2 21 00:01:27 22 583 00:55:29 10.8 m/hr 20 503 00:02:53 3 48 00:17:11 8:35 min/m
20 435 Heather MCNEIL 699 01:27:43 24 609 2:34 sec/100m 00:07:43 6 89 00:01:57 24 621 00:57:35 10.4 m/hr 8 117 00:01:42 7 119 00:18:43 9:21 min/m
21 452 Ana VALDES-MOELLER 472 01:28:50 8 122 2:08 sec/100m 00:06:26 10 146 00:02:15 18 494 00:51:54 11.6 m/hr 11 156 00:01:49 23 535 00:26:23 13:11 min/m
22 491 Lauren RASCHKE 291 01:30:53 12 175 2:12 sec/100m 00:06:36 18 413 00:03:39 23 599 00:56:25 10.6 m/hr 28 691 00:04:10 14 203 00:20:01 10:00 min/m
23 492 Seresa CARPENTER 165 01:30:57 13 196 2:13 sec/100m 00:06:39 19 417 00:03:40 25 635 00:58:13 10.3 m/hr 17 348 00:02:20 15 206 00:20:02 10:01 min/m
24 529 Stacy SAXON 304 01:33:27 3 43 2:00 sec/100m 00:06:02 25 556 00:04:26 13 336 00:46:08 13.0 m/hr 31 779 00:09:46 24 560 00:27:04 13:32 min/m
25 581 Lauren TUCKER 444 01:37:12 6 71 2:04 sec/100m 00:06:13 24 549 00:04:22 27 679 01:01:21 9.8 m/hr 18 395 00:02:28 21 364 00:22:46 11:23 min/m
26 659 Kacie EDMONDS 185 01:44:52 10 166 2:11 sec/100m 00:06:34 15 284 00:03:00 26 674 01:01:06 9.8 m/hr 19 470 00:02:45 27 696 00:31:25 15:42 min/m
27 686 Vivian GALLEGOS 407 01:48:16 31 781 3:45 sec/100m 00:11:16 7 104 00:02:03 20 567 00:54:36 11.0 m/hr 27 636 00:03:39 30 770 00:36:40 18:20 min/m
28 762 Isabel REYNA 708 02:02:36 23 532 2:28 sec/100m 00:07:25 29 638 00:05:00 28 696 01:03:15 9.5 m/hr 22 528 00:03:00 31 789 00:43:55 21:57 min/m
29 771 Kelli ECLAVEA 736 02:04:03 7 87 2:06 sec/100m 00:06:18 31 709 00:05:54 29 775 01:20:38 7.4 m/hr 16 295 00:02:12 25 634 00:29:00 14:30 min/m
30 789 Angelica GARCIA 743 02:18:46 28 769 3:16 sec/100m 00:09:50 27 598 00:04:42 31 781 01:26:45 6.9 m/hr 23 562 00:03:12 29 749 00:34:16 17:08 min/m
31 790 Brenda REYES 86 02:18:51 29 770 3:18 sec/100m 00:09:56 28 605 00:04:44 30 780 01:26:40 6.9 m/hr 24 577 00:03:16 28 747 00:34:14 17:07 min/m
    Lia BANKS 350 00:59:41     2:27 sec/100m 00:07:21     00:03:57     00:23:49 25.2 m/hr     00:02:49     00:21:42 10:51 min/m
Ages 30 - 34
1 2 Barb MORCOMBE 261 00:56:52 62 380 2:20 sec/100m 00:07:01 5 69 00:01:49 3 9 00:34:24 17.4 m/hr 1 20 00:01:13 1 1 00:12:24 6:12 min/m
2 6 Paula HERNANDEZ 95 00:59:32 38 217 2:13 sec/100m 00:06:41 13 139 00:02:14 1 7 00:34:06 17.6 m/hr 32 230 00:02:00 2 3 00:14:28 7:14 min/m
3 10 Regina MASSINGILL 866 01:02:20 17 97 2:06 sec/100m 00:06:20 8 98 00:02:01 4 14 00:35:06 17.1 m/hr 37 241 00:02:02 7 35 00:16:49 8:24 min/m
4 17 Adriana ZAMUDIO 657 01:03:09 31 165 2:11 sec/100m 00:06:34 23 226 00:02:42 6 20 00:35:55 16.7 m/hr 8 69 00:01:29 5 24 00:16:26 8:13 min/m
5 18 Faith PENA 421 01:03:20 29 159 2:11 sec/100m 00:06:33 4 65 00:01:48 2 8 00:34:23 17.4 m/hr 19 166 00:01:50 18 118 00:18:43 9:21 min/m
6 25 Leah PETERSON 104 01:04:59 51 311 2:17 sec/100m 00:06:52 20 199 00:02:33 8 25 00:36:33 16.4 m/hr 77 603 00:03:27 4 10 00:15:32 7:46 min/m
7 37 Lindy DOMKE 182 01:06:10 49 295 2:17 sec/100m 00:06:51 18 174 00:02:25 13 77 00:38:22 15.6 m/hr 29 222 00:01:59 6 27 00:16:32 8:16 min/m
8 52 Elizabeth WHITTEN 932 01:07:29 50 299 2:17 sec/100m 00:06:51 27 286 00:03:01 10 58 00:37:53 15.8 m/hr 28 216 00:01:58 9 67 00:17:44 8:52 min/m
9 55 Kelly MAYER 697 01:07:39 40 231 2:14 sec/100m 00:06:43 9 106 00:02:03 9 53 00:37:43 15.9 m/hr 42 275 00:02:07 21 145 00:19:01 9:30 min/m
10 56 Amelia CAMPBELL 163 01:07:54 65 399 2:21 sec/100m 00:07:03 24 229 00:02:43 7 21 00:36:10 16.6 m/hr 41 267 00:02:06 31 188 00:19:49 9:54 min/m
11 72 Bridget SAMMONS 454 01:08:48 39 222 2:14 sec/100m 00:06:42 43 386 00:03:32 5 18 00:35:33 16.9 m/hr 63 450 00:02:40 35 230 00:20:19 10:09 min/m
12 75 Sunday THOMPSON 111 01:08:59 5 27 1:58 sec/100m 00:05:56 15 154 00:02:19 17 104 00:39:13 15.3 m/hr 86 707 00:04:29 8 43 00:17:01 8:30 min/m
13 83 Veronica ETHRIDGE 951 01:09:38 26 154 2:10 sec/100m 00:06:32 72 584 00:04:37 12 73 00:38:15 15.7 m/hr 10 79 00:01:34 16 110 00:18:38 9:19 min/m
14 87 Rebecca CARTER 166 01:09:48 6 29 1:59 sec/100m 00:05:57 32 321 00:03:12 14 90 00:38:55 15.4 m/hr 71 511 00:02:56 19 123 00:18:47 9:23 min/m
15 103 Tara READ 293 01:10:38 1 1 1:46 sec/100m 00:05:20 12 137 00:02:13 36 260 00:43:34 13.8 m/hr 7 68 00:01:29 12 79 00:18:00 9:00 min/m
16 107 Nicole OBERLE 269 01:10:42 7 34 1:59 sec/100m 00:05:59 59 480 00:03:57 11 69 00:38:10 15.7 m/hr 15 146 00:01:47 37 255 00:20:47 10:23 min/m
17 109 Kelly BETTS 446 01:10:47 54 328 2:18 sec/100m 00:06:54 10 108 00:02:04 19 121 00:39:45 15.1 m/hr 34 232 00:02:01 33 204 00:20:01 10:00 min/m
18 121 Allison MILLER 449 01:11:38 19 104 2:07 sec/100m 00:06:21 58 477 00:03:55 33 248 00:43:18 13.9 m/hr 59 426 00:02:35 3 9 00:15:27 7:43 min/m
19 126 Leslie HARVEY 211 01:12:01 53 324 2:17 sec/100m 00:06:53 7 90 00:01:57 23 166 00:41:13 14.6 m/hr 62 441 00:02:38 23 156 00:19:18 9:39 min/m
20 127 Kelli NASH 543 01:12:02 8 39 2:00 sec/100m 00:06:00 40 356 00:03:22 25 185 00:41:49 14.3 m/hr 69 499 00:02:52 11 77 00:17:56 8:58 min/m
21 130 Kim GRIBBLE 204 01:12:05 41 239 2:14 sec/100m 00:06:44 14 143 00:02:14 18 120 00:39:44 15.1 m/hr 43 281 00:02:08 39 275 00:21:12 10:36 min/m
22 131 Brook LEE 395 01:12:08 2 3 1:49 sec/100m 00:05:29 17 163 00:02:22 22 165 00:41:12 14.6 m/hr 38 248 00:02:03 38 268 00:21:00 10:30 min/m
23 152 Mary LONG 370 01:13:12 22 118 2:08 sec/100m 00:06:25 22 219 00:02:39 30 224 00:42:49 14.0 m/hr 23 201 00:01:56 24 157 00:19:20 9:40 min/m
24 156 Ashley VENGLAR 38 01:13:22 4 9 1:53 sec/100m 00:05:39 19 178 00:02:26 20 131 00:40:05 15.0 m/hr 14 139 00:01:46 58 401 00:23:23 11:41 min/m
25 159 Jennifer SERRANO 314 01:13:31 24 140 2:10 sec/100m 00:06:31 11 119 00:02:07 45 316 00:45:27 13.2 m/hr 4 36 00:01:19 13 84 00:18:05 9:02 min/m
26 160 Rachel FORMAN 510 01:13:33 12 61 2:03 sec/100m 00:06:10 35 324 00:03:12 35 258 00:43:32 13.8 m/hr 11 98 00:01:38 20 141 00:18:58 9:29 min/m
27 163 Rebekah RELANDER 958 01:13:48 44 252 2:15 sec/100m 00:06:46 29 300 00:03:06 28 217 00:42:33 14.1 m/hr 6 47 00:01:23 32 198 00:19:59 9:59 min/m
28 185 Lily CHEUNG 476 01:15:04 13 62 2:03 sec/100m 00:06:11 66 545 00:04:20 16 94 00:38:58 15.4 m/hr 79 631 00:03:38 44 316 00:21:55 10:57 min/m
29 186 Natalia VILLANUEVA 892 01:15:10 27 155 2:10 sec/100m 00:06:32 31 306 00:03:08 21 158 00:41:05 14.6 m/hr 53 376 00:02:25 45 320 00:21:58 10:59 min/m
30 190 Ginna PRIOLA 639 01:15:27 77 480 2:25 sec/100m 00:07:16 61 487 00:03:59 15 93 00:38:58 15.4 m/hr 47 332 00:02:18 53 371 00:22:54 11:27 min/m
31 191 Sandra RODRIGUEZ 31 01:15:28 66 403 2:21 sec/100m 00:07:04 1 11 00:01:19 47 325 00:45:45 13.1 m/hr 16 148 00:01:47 27 171 00:19:31 9:45 min/m
32 222 Lindsay LITTLEFIELD 369 01:17:01 89 632 2:37 sec/100m 00:07:51 53 456 00:03:48 37 264 00:43:41 13.7 m/hr 76 575 00:03:15 15 99 00:18:24 9:12 min/m
33 223 Kodey FADDEN 92 01:17:04 3 5 1:51 sec/100m 00:05:34 16 159 00:02:20 50 359 00:46:46 12.8 m/hr 17 155 00:01:49 36 242 00:20:34 10:17 min/m
34 226 Megan PRICE 287 01:17:08 76 448 2:23 sec/100m 00:07:11 42 382 00:03:31 32 235 00:43:02 13.9 m/hr 80 641 00:03:40 29 181 00:19:43 9:51 min/m
35 232 Rania KARIM 346 01:17:19 11 53 2:02 sec/100m 00:06:08 33 322 00:03:12 46 321 00:45:40 13.1 m/hr 30 225 00:01:59 34 228 00:20:18 10:09 min/m
36 237 Lora KNAPP 954 01:17:31 46 262 2:15 sec/100m 00:06:47 63 524 00:04:11 34 255 00:43:27 13.8 m/hr 78 604 00:03:29 28 174 00:19:34 9:47 min/m
37 240 Saralena TRENKEL 331 01:17:32 64 397 2:21 sec/100m 00:07:03 6 85 00:01:55 24 176 00:41:32 14.4 m/hr 44 307 00:02:13 65 461 00:24:47 12:23 min/m
38 241 Melanie CARTER 668 01:17:33 86 587 2:32 sec/100m 00:07:36 34 323 00:03:12 54 375 00:47:09 12.7 m/hr 3 31 00:01:17 14 95 00:18:16 9:08 min/m
39 243 Courtney BLACKSTOCK 151 01:17:36 25 142 2:10 sec/100m 00:06:31 41 377 00:03:30 31 230 00:42:58 14.0 m/hr 35 235 00:02:02 50 355 00:22:35 11:17 min/m
40 250 Paige FINAN 56 01:17:57 15 92 2:06 sec/100m 00:06:19 3 17 00:01:24 27 198 00:42:08 14.2 m/hr 31 229 00:02:00 73 522 00:26:04 13:02 min/m
41 277 Ashley PRUNEDA 107 01:19:29 34 177 2:12 sec/100m 00:06:37 71 580 00:04:36 42 302 00:45:04 13.3 m/hr 83 658 00:03:49 25 158 00:19:22 9:41 min/m
42 279 Jessica CHANCE 89 01:19:32 35 206 2:13 sec/100m 00:06:40 81 644 00:05:03 38 266 00:43:45 13.7 m/hr 88 721 00:04:38 26 160 00:19:23 9:41 min/m
43 291 Crystal WINES 852 01:20:09 80 531 2:28 sec/100m 00:07:25 76 620 00:04:49 29 219 00:42:44 14.0 m/hr 18 161 00:01:50 56 395 00:23:19 11:39 min/m
44 317 Jennifer WARREN 112 01:21:37 67 408 2:21 sec/100m 00:07:04 57 473 00:03:54 51 364 00:46:51 12.8 m/hr 27 213 00:01:58 42 309 00:21:49 10:54 min/m
45 321 Morgan BAUMGARTNER 485 01:21:49 21 113 2:08 sec/100m 00:06:24 60 484 00:03:58 49 357 00:46:43 12.8 m/hr 36 238 00:02:02 51 359 00:22:40 11:20 min/m
46 332 Savannah MENDOZA 631 01:22:30 48 289 2:16 sec/100m 00:06:50 45 411 00:03:38 43 310 00:45:18 13.2 m/hr 61 429 00:02:36 62 431 00:24:06 12:03 min/m
47 337 Kate BEWICK 392 01:22:33 14 70 2:04 sec/100m 00:06:13 50 432 00:03:43 44 315 00:45:26 13.2 m/hr 67 492 00:02:51 63 443 00:24:18 12:09 min/m
48 346 Brittany KEYLAND 690 01:23:06 88 606 2:33 sec/100m 00:07:41 84 667 00:05:19 39 268 00:43:48 13.7 m/hr 87 710 00:04:30 41 305 00:21:46 10:53 min/m
49 347 Kim GIPSON 197 01:23:06 70 418 2:22 sec/100m 00:07:06 49 430 00:03:43 71 506 00:52:16 11.5 m/hr 5 41 00:01:20 17 113 00:18:40 9:20 min/m
50 351 Rebecca GRANT 59 01:23:21 10 47 2:01 sec/100m 00:06:04 79 639 00:05:00 74 528 00:53:00 11.3 m/hr 9 72 00:01:30 10 69 00:17:46 8:53 min/m
51 352 Julie WINGARD 134 01:23:22 90 637 2:37 sec/100m 00:07:52 83 666 00:05:18 40 281 00:44:20 13.5 m/hr 84 671 00:03:56 43 314 00:21:53 10:56 min/m
52 353 Kavita MURTHY 266 01:23:24 43 249 2:15 sec/100m 00:06:45 46 419 00:03:41 56 388 00:47:34 12.6 m/hr 73 547 00:03:07 47 333 00:22:15 11:07 min/m
53 357 Andria BALOGH 964 01:23:41                       54 381 00:02:26 30 185 00:19:47 9:53 min/m
54 363 Leslie WARD 962 01:24:00 23 138 2:10 sec/100m 00:06:30 55 459 00:03:49 55 378 00:47:18 12.7 m/hr 81 644 00:03:41 52 360 00:22:40 11:20 min/m
55 364 Laura NALLY 759 01:24:01 37 213 2:13 sec/100m 00:06:41 44 405 00:03:36 73 510 00:52:24 11.5 m/hr 46 319 00:02:16 22 147 00:19:03 9:31 min/m
56 369 Cara GREER 516 01:24:14 33 176 2:12 sec/100m 00:06:36 26 264 00:02:54 48 348 00:46:26 12.9 m/hr 20 168 00:01:51 76 536 00:26:24 13:12 min/m
57 378 Leesa MIMS 257 01:24:33 20 107 2:07 sec/100m 00:06:22 39 350 00:03:21 63 473 00:50:50 11.8 m/hr 13 107 00:01:41 48 340 00:22:18 11:09 min/m
58 394 Kimberly LAMBRIGHT 595 01:25:30 56 334 2:18 sec/100m 00:06:55 37 343 00:03:19 61 456 00:50:06 12.0 m/hr 12 99 00:01:38 60 408 00:23:31 11:45 min/m
59 401 Adrienne LEACH 234 01:26:01 47 266 2:15 sec/100m 00:06:47 85 672 00:05:21 58 420 00:48:59 12.2 m/hr 24 203 00:01:56 54 372 00:22:55 11:27 min/m
60 403 Sarah HERRING 25 01:26:10 60 368 2:19 sec/100m 00:06:59 36 330 00:03:15 52 365 00:46:52 12.8 m/hr 70 500 00:02:52 74 527 00:26:09 13:04 min/m
61 406 Giovanna RODRIGUEZ 127 01:26:23 18 98 2:06 sec/100m 00:06:20 47 427 00:03:42 67 489 00:51:32 11.6 m/hr 50 340 00:02:19 49 347 00:22:27 11:13 min/m
62 442 Giovanna BAUMAN 782 01:28:13 58 352 2:19 sec/100m 00:06:57 51 437 00:03:44 64 476 00:50:55 11.8 m/hr 89 738 00:05:07 40 296 00:21:28 10:44 min/m
63 447 Mollie MCCULLOUGH 867 01:28:29 74 436 2:23 sec/100m 00:07:09 30 302 00:03:07 75 529 00:53:00 11.3 m/hr 22 184 00:01:53 55 393 00:23:18 11:39 min/m
64 449 Allison SCHINGLE 564 01:28:37 45 253 2:15 sec/100m 00:06:46 82 662 00:05:17 69 500 00:52:02 11.5 m/hr 58 408 00:02:31 46 323 00:22:00 11:00 min/m
65 455 Shannon TIPTON 330 01:28:55 52 319 2:17 sec/100m 00:06:53 2 12 00:01:19 77 544 00:53:40 11.2 m/hr 40 262 00:02:05 67 470 00:24:56 12:28 min/m
66 458 Michaella DIETRICH 677 01:29:23 92 659 2:40 sec/100m 00:08:00 25 236 00:02:44 57 405 00:48:09 12.5 m/hr 51 358 00:02:22 85 602 00:28:07 14:03 min/m
67 461 Shea ROLLS 837 01:29:31 9 44 2:00 sec/100m 00:06:02 28 294 00:03:04 80 575 00:55:11 10.9 m/hr 21 182 00:01:53 57 396 00:23:19 11:39 min/m
68 470 Melissa YBARRA 780 01:30:14 63 386 2:20 sec/100m 00:07:01 56 468 00:03:52 41 296 00:44:46 13.4 m/hr 95 768 00:06:42 83 592 00:27:50 13:55 min/m
69 472 Kylah MOSES 702 01:30:18 61 372 2:20 sec/100m 00:07:00 62 507 00:04:05 53 373 00:47:07 12.7 m/hr 94 767 00:06:24 71 500 00:25:40 12:50 min/m
70 474 Rita SALINAS 709 01:30:20 32 174 2:12 sec/100m 00:06:36 70 566 00:04:31 60 445 00:49:45 12.1 m/hr 82 656 00:03:46 70 499 00:25:39 12:49 min/m
71 475 Julie CARMONA 788 01:30:24 83 537 2:29 sec/100m 00:07:27 52 444 00:03:45 76 542 00:53:34 11.2 m/hr 39 257 00:02:05 61 411 00:23:32 11:46 min/m
72 487 Melissa BUREK 855 01:30:42 73 427 2:22 sec/100m 00:07:07 68 563 00:04:30 62 458 00:50:07 12.0 m/hr 91 745 00:05:26 59 407 00:23:30 11:45 min/m
73 495 Amber OGLE 383 01:31:08 57 343 2:18 sec/100m 00:06:56 48 428 00:03:42 68 492 00:51:53 11.6 m/hr 45 313 00:02:15 75 534 00:26:19 13:09 min/m
74 497 Nichole FORADIS 57 01:31:14 16 96 2:06 sec/100m 00:06:20 80 643 00:05:03 26 186 00:41:49 14.3 m/hr 2 24 00:01:14 95 772 00:36:46 18:23 min/m
75 499 Jen YOSHIMOTO 853 01:31:19 81 534 2:28 sec/100m 00:07:26 75 617 00:04:48 59 437 00:49:37 12.1 m/hr 65 466 00:02:44 78 550 00:26:42 13:21 min/m
76 512 Sarah NICHOLS 98 01:32:11 72 426 2:22 sec/100m 00:07:07 87 690 00:05:42 72 509 00:52:21 11.5 m/hr 25 208 00:01:57 68 476 00:25:01 12:30 min/m
77 513 Jillian BONTKE 153 01:32:11 30 161 2:11 sec/100m 00:06:33 69 564 00:04:31 65 482 00:51:12 11.7 m/hr 55 382 00:02:26 79 577 00:27:27 13:43 min/m
78 542 Gena KELLAM 27 01:34:12 87 596 2:33 sec/100m 00:07:39 21 210 00:02:37 81 589 00:55:51 10.7 m/hr 52 361 00:02:22 72 501 00:25:41 12:50 min/m
79 543 Elizabeth CADENA 494 01:34:15 71 424 2:22 sec/100m 00:07:07 89 700 00:05:48 66 483 00:51:13 11.7 m/hr 60 427 00:02:35 80 582 00:27:30 13:45 min/m
80 549 Jodi GIDLEY 943 01:34:47 68 411 2:21 sec/100m 00:07:05 65 535 00:04:14 70 504 00:52:13 11.5 m/hr 75 568 00:03:14 84 600 00:27:59 13:59 min/m
81 554 Kelly READY 970 01:35:09 42 242 2:15 sec/100m 00:06:45 73 592 00:04:41 79 570 00:54:48 10.9 m/hr 85 675 00:03:59 66 467 00:24:54 12:27 min/m
82 615 Joni BOLLA 16 01:39:45 55 330 2:18 sec/100m 00:06:54 64 526 00:04:12 83 638 00:58:29 10.3 m/hr 57 401 00:02:29 81 585 00:27:40 13:50 min/m
83 634 Myra WELLER 931 01:42:32 96 716 2:48 sec/100m 00:08:25 86 687 00:05:38 78 564 00:54:30 11.0 m/hr 96 774 00:07:29 77 538 00:26:27 13:13 min/m
84 638 Tina SVOBODA 428 01:42:42 36 207 2:13 sec/100m 00:06:41 74 616 00:04:47 88 676 01:01:11 9.8 m/hr 48 334 00:02:18 82 588 00:27:43 13:51 min/m
85 639 Michelle GALLAGHER 190 01:42:56 59 361 2:19 sec/100m 00:06:58 78 633 00:04:56 82 605 00:56:57 10.5 m/hr 90 743 00:05:17 86 624 00:28:46 14:23 min/m
86 654 Jessica KELTON 817 01:44:30 82 536 2:29 sec/100m 00:07:27 77 624 00:04:51 87 665 01:00:35 9.9 m/hr 56 391 00:02:28 87 639 00:29:08 14:34 min/m
87 658 Shannon CALDWELL 787 01:44:51 69 414 2:22 sec/100m 00:07:06 90 708 00:05:53 84 653 00:59:52 10.0 m/hr 93 766 00:06:24 69 496 00:25:33 12:46 min/m
88 660 Elizabeth HERNANDEZ 368 01:44:57 75 442 2:23 sec/100m 00:07:10 91 711 00:05:57 90 704 01:04:05 9.4 m/hr 72 535 00:03:02 64 457 00:24:42 12:21 min/m
89 682 April REYES 354 01:47:43                       26 210 00:01:57 88 661 00:29:45 14:52 min/m
90 692 Jessica ALEXANDER 662 01:48:49 85 582 2:32 sec/100m 00:07:36 54 457 00:03:48 86 657 01:00:13 10.0 m/hr 68 498 00:02:52 93 750 00:34:17 17:08 min/m
91 708 Jessica ELKIN 618 01:51:03 94 691 2:45 sec/100m 00:08:15 94 757 00:08:03                      
92 711 Jenny GONZALEZ 365 01:51:21 84 543 2:29 sec/100m 00:07:28 38 347 00:03:20 91 721 01:07:25 8.9 m/hr 66 467 00:02:44 89 679 00:30:23 15:11 min/m
93 731 Ashley BURNETTE 966 01:54:09 93 666 2:40 sec/100m 00:08:01 93 718 00:06:09 89 686 01:02:10 9.7 m/hr 64 464 00:02:44 94 756 00:35:03 17:31 min/m
94 749 Valerie NICHOLS 97 01:57:23 78 486 2:25 sec/100m 00:07:16 88 696 00:05:46 93 743 01:09:42 8.6 m/hr 33 231 00:02:01 90 718 00:32:36 16:18 min/m
95 761 Michelle NICHOLS 704 02:02:13 79 517 2:27 sec/100m 00:07:22 95 759 00:08:13 94 744 01:10:04 8.6 m/hr 49 339 00:02:19 92 746 00:34:13 17:06 min/m
96 765 Mandi WORLEY 720 02:03:08 28 158 2:11 sec/100m 00:06:33 96 772 00:09:00 85 655 00:59:59 10.0 m/hr 97 783 00:13:50 91 738 00:33:45 16:52 min/m
97 780 Erika CANTU 80 02:05:31 91 645 2:38 sec/100m 00:07:54 92 712 00:05:58 92 727 01:07:54 8.8 m/hr 92 763 00:06:05 96 774 00:37:37 18:48 min/m
98 783 Ivon REYNA 125 02:06:50 95 702 2:46 sec/100m 00:08:19 67 553 00:04:24 95 752 01:11:26 8.4 m/hr 74 567 00:03:14 97 782 00:39:25 19:42 min/m
    Eva Maria LOPEZ 120 01:02:04     3:23 sec/100m 00:10:11     00:01:23     00:26:58 22.2 m/hr     00:01:57     00:21:33 10:46 min/m
Ages 35 - 39
1 1 Rachel ZAMBRANO 74 00:53:13 2 11 1:54 sec/100m 00:05:42 3 22 00:01:28 1 1 00:30:50 19.5 m/hr 12 44 00:01:20 1 2 00:13:52 6:56 min/m
2 3 Michelle KEYES 231 00:58:49 82 273 2:16 sec/100m 00:06:48 20 64 00:01:47 3 3 00:33:40 17.8 m/hr 5 15 00:01:07 4 7 00:15:25 7:42 min/m
3 4 Iris DIELEMAN 460 00:59:12 10 35 1:59 sec/100m 00:05:59 4 23 00:01:28 5 6 00:34:05 17.6 m/hr 35 123 00:01:44 6 17 00:15:54 7:57 min/m
4 5 Lauren SCOTT 70 00:59:26 24 103 2:07 sec/100m 00:06:21 11 39 00:01:35 2 2 00:33:38 17.8 m/hr 54 171 00:01:52 7 18 00:15:58 7:59 min/m
5 8 Heather GREENBERG 356 01:00:32 14 64 2:04 sec/100m 00:06:12 12 45 00:01:40 4 5 00:33:53 17.7 m/hr 47 150 00:01:48 10 41 00:16:58 8:29 min/m
6 12 Mequet WERLIN 337 01:02:39 15 72 2:05 sec/100m 00:06:15 39 148 00:02:16 16 49 00:37:37 15.9 m/hr 64 220 00:01:59 2 4 00:14:31 7:15 min/m
7 16 Tracey SCHWARTZ 310 01:02:59 162 694 2:45 sec/100m 00:08:17 18 61 00:01:46 10 32 00:36:48 16.3 m/hr 1 4 00:00:57 3 6 00:15:09 7:34 min/m
8 19 Christina BRIGGS 155 01:03:41 30 123 2:08 sec/100m 00:06:26 85 338 00:03:17 6 10 00:34:31 17.4 m/hr 73 269 00:02:06 13 52 00:17:18 8:39 min/m
9 21 Aimee GORDON 58 01:04:20 158 661 2:40 sec/100m 00:08:00 5 27 00:01:31 15 47 00:37:34 16.0 m/hr 2 5 00:00:58 9 23 00:16:16 8:08 min/m
10 22 Elizabeth MURRAY 265 01:04:21 160 685 2:44 sec/100m 00:08:12 8 34 00:01:33 7 16 00:35:17 17.0 m/hr 46 147 00:01:47 16 59 00:17:30 8:45 min/m
11 26 Michele DAVIS 794 01:05:03 112 440 2:23 sec/100m 00:07:10 62 269 00:02:56 13 42 00:37:14 16.1 m/hr 53 169 00:01:51 5 16 00:15:50 7:55 min/m
12 32 Therese MARCHANT 250 01:05:49 25 106 2:07 sec/100m 00:06:22 81 314 00:03:11 11 33 00:36:53 16.3 m/hr 25 93 00:01:38 20 68 00:17:44 8:52 min/m
13 33 Courtney RIDER 108 01:05:53 76 261 2:15 sec/100m 00:06:47 9 37 00:01:34 26 82 00:38:38 15.5 m/hr 42 132 00:01:45 11 46 00:17:08 8:34 min/m
14 35 Kaley HUETTE 688 01:05:56 1 10 1:54 sec/100m 00:05:42 24 81 00:01:54 8 28 00:36:41 16.4 m/hr 3 10 00:01:06 67 237 00:20:31 10:15 min/m
15 36 Reagan FOSTER 81 01:06:04 125 514 2:27 sec/100m 00:07:21 7 31 00:01:32 14 45 00:37:28 16.0 m/hr 22 84 00:01:35 26 85 00:18:07 9:03 min/m
16 38 Dana FARRAR 43 01:06:11 68 233 2:14 sec/100m 00:06:43 15 53 00:01:42 9 30 00:36:42 16.3 m/hr 104 428 00:02:36 32 102 00:18:27 9:13 min/m
17 51 Robin HADDEN 915 01:07:28 85 286 2:16 sec/100m 00:06:50 80 312 00:03:10 17 54 00:37:47 15.9 m/hr 57 179 00:01:53 21 71 00:17:47 8:53 min/m
18 54 Sandra BYRNE 493 01:07:35 5 19 1:56 sec/100m 00:05:49 2 13 00:01:21 31 112 00:39:32 15.2 m/hr 88 366 00:02:24 33 103 00:18:27 9:13 min/m
19 61 Kelly CHIMERA 169 01:08:16 146 594 2:32 sec/100m 00:07:38 60 261 00:02:51 22 74 00:38:18 15.7 m/hr 44 144 00:01:47 18 64 00:17:40 8:50 min/m
20 63 Robyn HOFFMAN 61 01:08:19 156 656 2:39 sec/100m 00:07:58 25 91 00:01:59 20 61 00:37:56 15.8 m/hr 38 128 00:01:45 36 114 00:18:40 9:20 min/m
21 70 Mindy SWANSON 649 01:08:42 119 481 2:25 sec/100m 00:07:16 115 478 00:03:56 19 60 00:37:56 15.8 m/hr 34 119 00:01:43 23 73 00:17:50 8:55 min/m
22 71 Donna LIN 605 01:08:45 47 181 2:12 sec/100m 00:06:37 35 125 00:02:09 34 138 00:40:22 14.9 m/hr 6 22 00:01:13 30 98 00:18:22 9:11 min/m
23 76 Kelly KOVACS 65 01:09:04 96 370 2:19 sec/100m 00:06:59 36 132 00:02:10 18 57 00:37:53 15.8 m/hr 66 226 00:01:59 59 200 00:20:00 10:00 min/m
24 88 Laura METCALF 255 01:10:01 38 145 2:10 sec/100m 00:06:31 78 309 00:03:09 23 75 00:38:18 15.7 m/hr 55 172 00:01:52 62 218 00:20:09 10:04 min/m
25 89 Wendy GATES 193 01:10:05 59 200 2:13 sec/100m 00:06:40 55 232 00:02:43 32 116 00:39:38 15.1 m/hr 78 289 00:02:10 40 132 00:18:52 9:26 min/m
26 96 Rachel HOLTON 218 01:10:18 123 501 2:26 sec/100m 00:07:19 1 8 00:01:14 43 180 00:41:39 14.4 m/hr 15 57 00:01:25 37 115 00:18:40 9:20 min/m
27 99 Cat ADKINS 143 01:10:23 61 203 2:13 sec/100m 00:06:40 21 67 00:01:48 29 105 00:39:17 15.3 m/hr 90 369 00:02:24 64 221 00:20:13 10:06 min/m
28 101 Maggie MCLEAN 96 01:10:34 153 644 2:38 sec/100m 00:07:54 17 60 00:01:46 25 78 00:38:25 15.6 m/hr 39 129 00:01:45 73 251 00:20:42 10:21 min/m
29 102 Sarah HUGHES 44 01:10:37 133 545 2:29 sec/100m 00:07:28 32 116 00:02:05 21 62 00:37:57 15.8 m/hr 26 97 00:01:38 84 292 00:21:26 10:43 min/m
30 111 Lori MCNEIL 47 01:10:50 12 57 2:02 sec/100m 00:06:08 46 182 00:02:26 28 101 00:39:04 15.4 m/hr 24 90 00:01:37 87 300 00:21:34 10:47 min/m
31 112 Eliana TEAGUE 776 01:10:50 121 487 2:25 sec/100m 00:07:17 104 422 00:03:41 33 117 00:39:41 15.1 m/hr 101 409 00:02:31 17 62 00:17:38 8:49 min/m
32 113 Amanda WARRICK 580 01:11:10 84 281 2:16 sec/100m 00:06:49 41 169 00:02:23 50 213 00:42:27 14.1 m/hr 10 38 00:01:19 27 86 00:18:10 9:05 min/m
33 114 Michelle KELLEY 347 01:11:12 80 269 2:16 sec/100m 00:06:48 58 249 00:02:48 40 157 00:41:04 14.6 m/hr 48 151 00:01:48 38 117 00:18:42 9:21 min/m
34 119 Jocelyn PETERSON 280 01:11:35 91 326 2:17 sec/100m 00:06:53 14 52 00:01:42 24 76 00:38:20 15.6 m/hr 7 26 00:01:14 114 400 00:23:23 11:41 min/m
35 120 Sarah JAUDES 751 01:11:38 106 416 2:22 sec/100m 00:07:06 72 290 00:03:02 36 149 00:40:53 14.7 m/hr 74 271 00:02:07 34 105 00:18:29 9:14 min/m
36 122 Angie TOLER 891 01:11:46 92 333 2:18 sec/100m 00:06:54 67 279 00:02:59 46 200 00:42:10 14.2 m/hr 67 228 00:02:00 19 65 00:17:40 8:50 min/m
37 124 Lisa CISNEROS 882 01:11:52 11 55 2:02 sec/100m 00:06:08 82 318 00:03:12 44 184 00:41:44 14.4 m/hr 105 430 00:02:36 28 90 00:18:11 9:05 min/m
38 132 Emily VEAZEY 846 01:12:08 9 30 1:59 sec/100m 00:05:57 68 280 00:02:59 62 277 00:44:06 13.6 m/hr 8 27 00:01:16 22 72 00:17:49 8:54 min/m
39 133 Michelle LAFLURE 945 01:12:11 67 228 2:14 sec/100m 00:06:42 128 536 00:04:14 27 89 00:38:54 15.4 m/hr 112 445 00:02:40 53 179 00:19:39 9:49 min/m
40 141 Karen DIAZGRANADOS 504 01:12:45 128 523 2:27 sec/100m 00:07:23 54 227 00:02:43 39 156 00:41:01 14.6 m/hr 114 456 00:02:42 41 134 00:18:55 9:27 min/m
41 146 Amanda WARRINGTON 453 01:12:51 40 148 2:10 sec/100m 00:06:32 71 288 00:03:02 30 110 00:39:30 15.2 m/hr 29 105 00:01:39 92 326 00:22:07 11:03 min/m
42 154 Katharine DESCAMPS 11 01:13:17 6 20 1:56 sec/100m 00:05:49 65 274 00:02:58 37 150 00:40:53 14.7 m/hr 17 74 00:01:31 91 325 00:22:04 11:02 min/m
43 162 Janie GROTH 517 01:13:47 13 59 2:03 sec/100m 00:06:10 103 420 00:03:41 35 144 00:40:43 14.7 m/hr 61 206 00:01:56 80 279 00:21:15 10:37 min/m
44 169 Melissa NGUYEN 268 01:13:57 8 25 1:58 sec/100m 00:05:55 74 292 00:03:02 53 227 00:42:52 14.0 m/hr 21 83 00:01:35 68 238 00:20:31 10:15 min/m
45 170 Rachel PITTMAN 283 01:13:59 86 297 2:17 sec/100m 00:06:51 88 353 00:03:21 47 202 00:42:15 14.2 m/hr 75 277 00:02:07 49 159 00:19:23 9:41 min/m
46 171 Victoria LANGLAIS 819 01:14:01 111 439 2:23 sec/100m 00:07:10 79 310 00:03:09 64 282 00:44:21 13.5 m/hr 14 53 00:01:24 24 75 00:17:55 8:57 min/m
47 179 Sara BODNAR 361 01:14:41 46 180 2:12 sec/100m 00:06:37 48 194 00:02:32 63 278 00:44:08 13.6 m/hr 63 215 00:01:58 50 163 00:19:24 9:42 min/m
48 180 Danya CORKIN 363 01:14:48 19 83 2:05 sec/100m 00:06:17 94 389 00:03:33 57 245 00:43:12 13.9 m/hr 98 394 00:02:28 48 154 00:19:16 9:38 min/m
49 181 Alissa HESS 214 01:14:48 49 183 2:12 sec/100m 00:06:38 13 51 00:01:41 52 221 00:42:45 14.0 m/hr 84 331 00:02:18 83 290 00:21:25 10:42 min/m
50 196 K P 276 01:15:42 71 244 2:15 sec/100m 00:06:45 52 206 00:02:35 38 154 00:40:56 14.7 m/hr 33 116 00:01:42 120 419 00:23:42 11:51 min/m
51 198 Deidre LEGGIERO 236 01:15:43 79 268 2:15 sec/100m 00:06:47 70 285 00:03:00 45 190 00:41:51 14.3 m/hr 109 439 00:02:38 82 288 00:21:25 10:42 min/m
52 199 Mehgan WICHUK 779 01:15:49 175 746 2:58 sec/100m 00:08:55 131 542 00:04:18 12 39 00:37:06 16.2 m/hr 127 501 00:02:53 101 354 00:22:34 11:17 min/m
53 207 Tracy VANDORSELAER 51 01:16:14 155 651 2:39 sec/100m 00:07:58 40 150 00:02:18 65 288 00:44:32 13.5 m/hr 121 483 00:02:47 35 109 00:18:37 9:18 min/m
54 210 Erika RAMSEY 290 01:16:24 75 260 2:15 sec/100m 00:06:47 96 397 00:03:34 61 274 00:44:02 13.6 m/hr 68 233 00:02:01 58 197 00:19:58 9:59 min/m
55 213 Cheryl TEPPER 329 01:16:28 148 600 2:33 sec/100m 00:07:40 122 504 00:04:04 41 171 00:41:21 14.5 m/hr 4 13 00:01:07 94 334 00:22:15 11:07 min/m
56 214 Lauren VERNON 387 01:16:31 16 73 2:05 sec/100m 00:06:15 84 337 00:03:17 66 298 00:44:52 13.4 m/hr 27 102 00:01:39 65 235 00:20:26 10:13 min/m
57 215 Amber AUBONE 663 01:16:35 20 85 2:06 sec/100m 00:06:18 50 196 00:02:33 88 383 00:47:24 12.7 m/hr 19 78 00:01:33 39 121 00:18:45 9:22 min/m
58 216 Jennifer SUEHS 374 01:16:48 94 339 2:18 sec/100m 00:06:56 28 109 00:02:04 79 360 00:46:48 12.8 m/hr 69 243 00:02:03 43 136 00:18:56 9:28 min/m
59 217 Alice MAYFIELD 976 01:16:50 17 75 2:05 sec/100m 00:06:15 59 252 00:02:48 84 377 00:47:15 12.7 m/hr 71 258 00:02:05 31 100 00:18:25 9:12 min/m
60 218 Jen WILHELM 434 01:16:51 39 147 2:10 sec/100m 00:06:31 69 282 00:03:00 59 250 00:43:21 13.8 m/hr 120 482 00:02:47 78 274 00:21:10 10:35 min/m
61 219 Michelle MOELLER 701 01:16:52 21 89 2:06 sec/100m 00:06:18 56 243 00:02:46 85 379 00:47:19 12.7 m/hr 18 75 00:01:32 42 135 00:18:55 9:27 min/m
62 227 Mary PINA 105 01:17:10 23 101 2:07 sec/100m 00:06:21 34 124 00:02:09 67 301 00:45:01 13.3 m/hr 11 42 00:01:20 96 339 00:22:18 11:09 min/m
63 228 Kari DURONIO 184 01:17:12 93 337 2:18 sec/100m 00:06:56 92 380 00:03:31 60 262 00:43:39 13.7 m/hr 141 589 00:03:22 54 182 00:19:43 9:51 min/m
64 233 Heidi ANHALT 401 01:17:21 87 302 2:17 sec/100m 00:06:52 22 78 00:01:54 51 216 00:42:32 14.1 m/hr 137 571 00:03:15 104 366 00:22:47 11:23 min/m
65 236 Katy CORNETT 670 01:17:29 35 137 2:10 sec/100m 00:06:30 99 408 00:03:37 69 319 00:45:35 13.2 m/hr 81 309 00:02:14 51 169 00:19:30 9:45 min/m
66 246 Kristin CRAWFORD 175 01:17:46 179 762 3:07 sec/100m 00:09:21 98 403 00:03:35 48 203 00:42:15 14.2 m/hr 110 440 00:02:38 56 193 00:19:56 9:58 min/m
67 252 Melinda GARDNER 439 01:18:08 22 95 2:06 sec/100m 00:06:20 66 276 00:02:58 109 442 00:49:44 12.1 m/hr 59 198 00:01:55 12 47 00:17:09 8:34 min/m
68 257 Kristi ULLRICH 777 01:18:21 178 761 3:06 sec/100m 00:09:19 43 175 00:02:25 86 381 00:47:20 12.7 m/hr 56 177 00:01:52 15 55 00:17:24 8:42 min/m
69 261 Sonya ALCOCER-CHARLES 607 01:18:35 74 259 2:15 sec/100m 00:06:46 137 589 00:04:39 98 411 00:48:27 12.4 m/hr 106 431 00:02:36 8 21 00:16:05 8:02 min/m
70 264 Stephanie WATSON 847 01:18:40 165 724 2:49 sec/100m 00:08:29 45 181 00:02:26 83 376 00:47:12 12.7 m/hr 133 554 00:03:10 14 53 00:17:22 8:41 min/m
71 269 Erin PORTMAN 285 01:19:07 32 128 2:09 sec/100m 00:06:27 61 265 00:02:54 104 432 00:49:23 12.1 m/hr 13 49 00:01:23 44 138 00:18:57 9:28 min/m
72 271 Andrea FARRELL 681 01:19:14 37 144 2:10 sec/100m 00:06:31 49 195 00:02:33 100 418 00:48:50 12.3 m/hr 37 126 00:01:45 52 172 00:19:34 9:47 min/m
73 274 Ky WALKER 778 01:19:24 105 415 2:22 sec/100m 00:07:06 119 493 00:04:01 42 172 00:41:23 14.5 m/hr 60 202 00:01:56 134 471 00:24:57 12:28 min/m
74 276 Molly DWYER 55 01:19:27 33 129 2:09 sec/100m 00:06:28 143 611 00:04:46 76 350 00:46:29 12.9 m/hr 116 459 00:02:43 47 143 00:18:59 9:29 min/m
75 278 Jordan ALLEN 894 01:19:30 42 163 2:11 sec/100m 00:06:34 141 604 00:04:44 77 351 00:46:29 12.9 m/hr 117 462 00:02:43 46 142 00:18:58 9:29 min/m
76 281 Janet SLOVER 87 01:19:38 83 279 2:16 sec/100m 00:06:49 10 38 00:01:34 58 249 00:43:19 13.9 m/hr 119 479 00:02:47 138 484 00:25:08 12:34 min/m
77 284 Sara PATTERSON 551 01:19:49 43 164 2:11 sec/100m 00:06:34 90 370 00:03:27 68 312 00:45:20 13.2 m/hr 94 385 00:02:26 90 324 00:22:01 11:00 min/m
78 297 Verinda DAYTON 405 01:20:47 55 192 2:13 sec/100m 00:06:39 87 344 00:03:19 71 330 00:45:50 13.1 m/hr 103 411 00:02:32 99 345 00:22:25 11:12 min/m
79 299 Gina NOBLES 419 01:20:50 135 552 2:30 sec/100m 00:07:31 152 637 00:04:59 49 204 00:42:18 14.2 m/hr 160 713 00:04:32 86 295 00:21:28 10:44 min/m
80 303 Tammi BARNETT 481 01:20:54 44 170 2:11 sec/100m 00:06:35 91 375 00:03:29 54 229 00:42:57 14.0 m/hr 170 747 00:05:29 98 343 00:22:22 11:11 min/m
81 318 Emily GETTO 195 01:21:40 154 646 2:38 sec/100m 00:07:56 83 334 00:03:16 75 347 00:46:26 12.9 m/hr 154 659 00:03:49 63 219 00:20:11 10:05 min/m
82 320 Erica SERRANO 426 01:21:45 110 433 2:23 sec/100m 00:07:09 31 113 00:02:05 95 401 00:48:02 12.5 m/hr 79 293 00:02:11 95 337 00:22:16 11:08 min/m
83 327 Kimmi GARY 952 01:22:03 147 599 2:33 sec/100m 00:07:40 135 575 00:04:33 82 374 00:47:08 12.7 m/hr 50 157 00:01:49 75 259 00:20:51 10:25 min/m
84 328 Michele DEWITT 393 01:22:03 102 387 2:20 sec/100m 00:07:02 38 134 00:02:12 116 462 00:50:22 11.9 m/hr 30 108 00:01:41 74 253 00:20:44 10:22 min/m
85 329 Andrea GOMEZ-SAENZ 21 01:22:15 95 354 2:19 sec/100m 00:06:57 6 29 00:01:31 70 327 00:45:45 13.1 m/hr 151 639 00:03:40 126 444 00:24:19 12:09 min/m
86 330 Nina STAATS 596 01:22:20 81 271 2:16 sec/100m 00:06:48 118 490 00:04:00 73 338 00:46:13 13.0 m/hr 31 110 00:01:41 118 416 00:23:36 11:48 min/m
87 342 Janet LAURELL 531 01:22:45 99 377 2:20 sec/100m 00:07:00 159 681 00:05:31 113 452 00:49:58 12.0 m/hr 80 299 00:02:12 25 80 00:18:01 9:00 min/m
88 349 Kelly ICENHOWER 219 01:23:13 48 182 2:12 sec/100m 00:06:37 51 202 00:02:34 87 382 00:47:24 12.7 m/hr 51 163 00:01:50 132 460 00:24:46 12:23 min/m
89 354 Stacy SCHWARZ 311 01:23:25 41 152 2:10 sec/100m 00:06:32 95 395 00:03:34 78 355 00:46:41 12.8 m/hr 97 393 00:02:28 123 434 00:24:08 12:04 min/m
90 355 Amber REED 373 01:23:32 36 141 2:10 sec/100m 00:06:31 110 454 00:03:48 91 389 00:47:35 12.6 m/hr 91 372 00:02:25 108 386 00:23:11 11:35 min/m
91 368 Holly BARR 482 01:24:13 57 197 2:13 sec/100m 00:06:39 47 186 00:02:26 96 404 00:48:08 12.5 m/hr 96 392 00:02:28 128 446 00:24:29 12:14 min/m
92 374 Amanda CARL 164 01:24:24 65 219 2:14 sec/100m 00:06:42 29 110 00:02:04 107 438 00:49:40 12.1 m/hr 20 80 00:01:34 127 445 00:24:22 12:11 min/m
93 375 Elise BOLDT 666 01:24:25 115 465 2:24 sec/100m 00:07:13 136 586 00:04:38 56 242 00:43:11 13.9 m/hr 149 634 00:03:38 139 504 00:25:43 12:51 min/m
94 382 Tammy WALRATH 335 01:24:49 29 121 2:08 sec/100m 00:06:26 139 594 00:04:41 72 331 00:45:54 13.1 m/hr 122 484 00:02:47 135 473 00:24:59 12:29 min/m
95 384 Kelly KELLAR 527 01:24:54 66 224 2:14 sec/100m 00:06:42 166 742 00:06:44 55 234 00:43:00 14.0 m/hr 158 693 00:04:13 124 436 00:24:12 12:06 min/m
96 387 Jaime KEY 230 01:25:07 127 520 2:27 sec/100m 00:07:23 129 539 00:04:16 94 400 00:48:02 12.5 m/hr 77 288 00:02:10 110 388 00:23:15 11:37 min/m
97 388 Melissa MELNYK 604 01:25:09 152 618 2:35 sec/100m 00:07:47 113 461 00:03:51 105 434 00:49:24 12.1 m/hr 113 455 00:02:42 81 284 00:21:23 10:41 min/m
98 391 Dana RACHAL 397 01:25:16 124 507 2:26 sec/100m 00:07:20 42 170 00:02:23 120 480 00:51:02 11.8 m/hr 9 28 00:01:16 109 387 00:23:13 11:36 min/m
99 393 Angie PACK 102 01:25:21 151 612 2:35 sec/100m 00:07:46 37 133 00:02:11 106 435 00:49:28 12.1 m/hr 111 444 00:02:39 112 390 00:23:15 11:37 min/m
100 395 Renee BRACKIN 907 01:25:36 118 475 2:25 sec/100m 00:07:15 64 272 00:02:57 118 472 00:50:49 11.8 m/hr 16 59 00:01:25 106 380 00:23:08 11:34 min/m
101 402 Arlene PACHECO 831 01:26:06 145 590 2:32 sec/100m 00:07:37 97 400 00:03:35 90 386 00:47:29 12.6 m/hr 171 750 00:05:33 89 311 00:21:51 10:55 min/m
102 404 Lisa LIM 693 01:26:14 7 24 1:58 sec/100m 00:05:55 112 458 00:03:49 131 517 00:52:45 11.4 m/hr 65 221 00:01:59 88 303 00:21:44 10:52 min/m
103 408 Laura TIERNAN 72 01:26:31 52 186 2:12 sec/100m 00:06:38 73 291 00:03:02 111 447 00:49:51 12.0 m/hr 87 357 00:02:22 129 450 00:24:36 12:18 min/m
104 414 Amber REUE 559 01:26:40 142 572 2:31 sec/100m 00:07:35 140 595 00:04:41 99 417 00:48:45 12.3 m/hr 161 717 00:04:36 77 270 00:21:01 10:30 min/m
105 415 Dawn DAVIES 177 01:26:43 157 660 2:40 sec/100m 00:08:00 120 495 00:04:01 101 419 00:48:54 12.3 m/hr 49 153 00:01:48 121 426 00:23:58 11:59 min/m
106 416 Reba MUSSEY 124 01:26:53 143 573 2:31 sec/100m 00:07:35 148 628 00:04:52 93 393 00:47:45 12.6 m/hr 131 536 00:03:03 119 417 00:23:36 11:48 min/m
107 418 Cheryll MORALES 540 01:27:01 108 428 2:22 sec/100m 00:07:07 121 501 00:04:04 97 410 00:48:26 12.4 m/hr 132 550 00:03:09 125 437 00:24:13 12:06 min/m
108 419 Alison ELLIOTT 619 01:27:02 137 557 2:30 sec/100m 00:07:31 146 621 00:04:50 102 421 00:48:59 12.2 m/hr 140 584 00:03:18 97 342 00:22:22 11:11 min/m
109 421 Amy KEMTER 64 01:27:05 138 561 2:30 sec/100m 00:07:32 107 442 00:03:45 110 444 00:49:45 12.1 m/hr 138 572 00:03:15 103 365 00:22:47 11:23 min/m
110 424 Ladeitra LEE 235 01:27:13 88 306 2:17 sec/100m 00:06:52 27 102 00:02:03 152 622 00:57:40 10.4 m/hr 89 367 00:02:24 29 92 00:18:12 9:06 min/m
111 425 Nika BROGAN 728 01:27:13 117 471 2:24 sec/100m 00:07:14 157 668 00:05:19 126 505 00:52:14 11.5 m/hr 102 410 00:02:31 55 191 00:19:52 9:56 min/m
112 429 Lucy OSTFELD 830 01:27:28 50 184 2:12 sec/100m 00:06:38 160 686 00:05:36 124 495 00:51:55 11.6 m/hr 134 563 00:03:13 61 214 00:20:05 10:02 min/m
113 432 Tiffany GHAHARIE 20 01:27:34 159 667 2:40 sec/100m 00:08:02 63 271 00:02:57 125 496 00:51:56 11.6 m/hr 99 403 00:02:30 93 327 00:22:08 11:04 min/m
114 433 Lisa MURPHY 264 01:27:40 131 530 2:28 sec/100m 00:07:24 149 629 00:04:53 133 524 00:52:55 11.3 m/hr 86 352 00:02:21 60 212 00:20:05 10:02 min/m
115 434 Michelle THOMAS 650 01:27:42 56 193 2:13 sec/100m 00:06:39 53 207 00:02:35 114 460 00:50:10 12.0 m/hr 40 130 00:01:45 142 540 00:26:31 13:15 min/m
116 443 Jenna ALCARAZ WAZAC 661 01:28:16 103 406 2:21 sec/100m 00:07:04 102 415 00:03:40 139 546 00:53:45 11.2 m/hr 83 327 00:02:17 85 294 00:21:28 10:44 min/m
117 444 Jordan PREDDY 977 01:28:19 34 135 2:10 sec/100m 00:06:30 23 79 00:01:54 158 643 00:58:39 10.2 m/hr 82 320 00:02:16 45 140 00:18:58 9:29 min/m
118 445 Maricelle THORNTON 899 01:28:24 60 201 2:13 sec/100m 00:06:40 123 505 00:04:04 80 362 00:46:50 12.8 m/hr 43 135 00:01:45 156 635 00:29:02 14:31 min/m
119 451 Stephanie COKER 459 01:28:39 150 607 2:34 sec/100m 00:07:42 133 559 00:04:28 108 440 00:49:42 12.1 m/hr 23 87 00:01:36 137 483 00:25:08 12:34 min/m
120 454 Sasha LUTHER 244 01:28:54 78 267 2:15 sec/100m 00:06:47 126 520 00:04:10 119 478 00:51:00 11.8 m/hr 153 655 00:03:46 107 383 00:23:10 11:35 min/m
121 467 Stacey DELUNA 796 01:30:02 3 12 1:54 sec/100m 00:05:43 145 614 00:04:47 128 513 00:52:31 11.4 m/hr 85 350 00:02:21 130 452 00:24:39 12:19 min/m
122 469 Nikki PEOPLES 103 01:30:13 149 605 2:33 sec/100m 00:07:41 144 612 00:04:46 136 538 00:53:17 11.3 m/hr 135 569 00:03:14 79 276 00:21:13 10:36 min/m
123 479 Liz GOODMAN 200 01:30:34 58 198 2:13 sec/100m 00:06:40 114 465 00:03:52 154 629 00:57:59 10.3 m/hr 72 266 00:02:06 57 194 00:19:56 9:58 min/m
124 481 Chelsea LAFITTE 83 01:30:36 120 485 2:25 sec/100m 00:07:16 16 58 00:01:45 150 615 00:57:22 10.5 m/hr 28 104 00:01:39 100 351 00:22:31 11:15 min/m
125 485 Shelly SHEPPARD 773 01:30:41 69 234 2:14 sec/100m 00:06:43 161 695 00:05:44 115 461 00:50:15 11.9 m/hr 139 583 00:03:17 131 453 00:24:40 12:20 min/m
126 501 Meredith SINGLETARY 320 01:31:28 139 562 2:30 sec/100m 00:07:32 93 388 00:03:33 89 384 00:47:26 12.6 m/hr 167 734 00:05:02 147 596 00:27:53 13:56 min/m
127 503 Kristy GRENAT 22 01:31:31 141 571 2:31 sec/100m 00:07:34 89 359 00:03:23 103 425 00:49:13 12.2 m/hr 125 487 00:02:49 151 615 00:28:29 14:14 min/m
128 514 Lauren JOHNSON 594 01:32:12 62 205 2:13 sec/100m 00:06:40 109 452 00:03:47 117 470 00:50:44 11.8 m/hr 70 247 00:02:03 154 631 00:28:55 14:27 min/m
129 516 Lori FRIZZELL 741 01:32:23 101 385 2:20 sec/100m 00:07:01 116 481 00:03:57 159 644 00:58:42 10.2 m/hr 36 124 00:01:44 76 265 00:20:57 10:28 min/m
130 518 Cathy MCLEOD 466 01:32:36 161 687 2:44 sec/100m 00:08:13 130 541 00:04:17 92 390 00:47:36 12.6 m/hr 128 506 00:02:54 160 654 00:29:34 14:47 min/m
131 522 Kady PAULEY 552 01:32:49 114 464 2:24 sec/100m 00:07:13 100 410 00:03:38 123 493 00:51:54 11.6 m/hr 166 733 00:04:58 136 479 00:25:05 12:32 min/m
132 525 Rachel JENT 26 01:33:05 134 547 2:29 sec/100m 00:07:29 147 623 00:04:51 122 486 00:51:29 11.7 m/hr 41 131 00:01:45 146 580 00:27:30 13:45 min/m
133 533 Ellen LUKERT 465 01:33:47 129 528 2:28 sec/100m 00:07:24 127 533 00:04:13 127 512 00:52:29 11.4 m/hr 32 113 00:01:42 148 598 00:27:57 13:58 min/m
134 546 Fernanda LEROUX 67 01:34:29 173 741 2:56 sec/100m 00:08:50 30 111 00:02:04 121 485 00:51:27 11.7 m/hr 62 211 00:01:57 162 675 00:30:09 15:04 min/m
135 547 Maribel MARTINEZ 536 01:34:33 176 757 3:04 sec/100m 00:09:12 165 732 00:06:33 112 448 00:49:51 12.0 m/hr 172 754 00:05:40 111 389 00:23:15 11:37 min/m
136 556 Richain HEROD 116 01:35:12 63 210 2:13 sec/100m 00:06:41 57 244 00:02:46 145 591 00:55:54 10.7 m/hr 150 635 00:03:39 140 528 00:26:10 13:05 min/m
137 568 Carolyn CLAY 791 01:36:16 104 413 2:21 sec/100m 00:07:05 153 640 00:05:01 148 612 00:57:07 10.5 m/hr 148 629 00:03:37 115 402 00:23:24 11:42 min/m
138 573 Shannon HIGHTOWER 748 01:36:26 26 111 2:08 sec/100m 00:06:24 124 506 00:04:05 129 514 00:52:35 11.4 m/hr 76 280 00:02:08 166 694 00:31:13 15:36 min/m
139 574 Marcie JENKINS 226 01:36:36 27 117 2:08 sec/100m 00:06:25 176 774 00:09:04 134 530 00:53:02 11.3 m/hr 164 723 00:04:39 116 403 00:23:25 11:42 min/m
140 575 Laura DAVENPORT 600 01:36:37 122 495 2:26 sec/100m 00:07:18 172 765 00:08:43 74 341 00:46:18 13.0 m/hr 177 775 00:07:44 143 541 00:26:33 13:16 min/m
141 576 Amanda REIMHERR BUCKERT 295 01:36:49 51 185 2:12 sec/100m 00:06:38 179 777 00:09:09 147 610 00:57:01 10.5 m/hr 143 597 00:03:25 69 240 00:20:34 10:17 min/m
142 577 Hope STEINHOFF 53 01:37:01 100 379 2:20 sec/100m 00:07:01 169 761 00:08:23 130 515 00:52:41 11.4 m/hr 45 145 00:01:47 145 563 00:27:07 13:33 min/m
143 578 Lindsey STEPHENS 648 01:37:04 89 307 2:17 sec/100m 00:06:52 174 770 00:08:58 135 535 00:53:07 11.3 m/hr 163 722 00:04:39 117 405 00:23:27 11:43 min/m
144 580 Casey SCHELER 308 01:37:10 107 422 2:22 sec/100m 00:07:07 111 455 00:03:48 142 566 00:54:35 11.0 m/hr 178 777 00:08:33 105 376 00:23:05 11:32 min/m
145 591 Anne HOLDER 62 01:37:42 130 529 2:28 sec/100m 00:07:24 155 651 00:05:08 144 585 00:55:36 10.8 m/hr 126 496 00:02:52 144 549 00:26:39 13:19 min/m
146 600 Jane DECKER 180 01:38:13 45 172 2:11 sec/100m 00:06:35 134 568 00:04:31 137 541 00:53:33 11.2 m/hr 162 719 00:04:36 155 632 00:28:55 14:27 min/m
147 608 Amy TANG 929 01:38:59 28 119 2:08 sec/100m 00:06:25 77 308 00:03:09 167 713 01:05:46 9.1 m/hr 129 510 00:02:56 72 250 00:20:42 10:21 min/m
148 616 Sabrina GALLARDO 860 01:39:47 132 533 2:28 sec/100m 00:07:25 19 63 00:01:47 146 592 00:56:00 10.7 m/hr 168 737 00:05:07 157 649 00:29:26 14:43 min/m
149 621 Jennifer LOPEZ 352 01:40:47 166 727 2:50 sec/100m 00:08:30 105 423 00:03:41 151 619 00:57:33 10.4 m/hr 123 485 00:02:48 149 606 00:28:12 14:06 min/m
150 622 Sheetal PATEL 550 01:40:55 18 78 2:05 sec/100m 00:06:16 86 342 00:03:19 172 736 01:08:46 8.7 m/hr 58 186 00:01:53 71 245 00:20:39 10:19 min/m
151 628 Aimee WITHERSPOON 88 01:42:03 109 432 2:23 sec/100m 00:07:09 158 680 00:05:29 132 523 00:52:55 11.3 m/hr 156 672 00:03:56 170 716 00:32:32 16:16 min/m
152 642 Amanda HESELMUYER 974 01:43:13 31 124 2:09 sec/100m 00:06:27 101 412 00:03:39 155 632 00:58:11 10.3 m/hr 145 610 00:03:30 167 698 00:31:25 15:42 min/m
153 644 Chrissy CAMPBELL 495 01:43:15 98 374 2:20 sec/100m 00:07:00 163 707 00:05:53 160 647 00:58:52 10.2 m/hr 176 773 00:07:25 122 429 00:24:03 12:01 min/m
154 646 Rebecca MITCHAM 826 01:43:30 4 17 1:55 sec/100m 00:05:46 106 429 00:03:42 173 739 01:08:51 8.7 m/hr 93 379 00:02:25 102 361 00:22:42 11:21 min/m
155 651 Pamela MEJIA 825 01:44:10 70 237 2:14 sec/100m 00:06:43 44 176 00:02:25 163 694 01:02:48 9.6 m/hr 107 435 00:02:37 161 656 00:29:35 14:47 min/m
156 661 Geneveve OCHOA 48 01:45:01 171 739 2:55 sec/100m 00:08:45 75 295 00:03:04 141 554 00:54:11 11.1 m/hr 155 665 00:03:53 179 759 00:35:06 17:33 min/m
157 662 Karen DULYUNAN 183 01:45:07 113 456 2:24 sec/100m 00:07:12 138 591 00:04:40 81 371 00:47:05 12.7 m/hr 179 780 00:11:02 178 758 00:35:06 17:33 min/m
158 663 Sara SANFORD 563 01:45:11 180 763 3:07 sec/100m 00:09:23 33 121 00:02:08 138 543 00:53:36 11.2 m/hr 147 624 00:03:35 181 769 00:36:28 18:14 min/m
159 664 Erika ABEL 781 01:45:30 164 714 2:48 sec/100m 00:08:24 142 610 00:04:46 156 633 00:58:11 10.3 m/hr 152 648 00:03:43 164 680 00:30:24 15:12 min/m
160 671 Jessica MAKI 629 01:46:35 144 577 2:31 sec/100m 00:07:35 125 508 00:04:05 170 724 01:07:35 8.9 m/hr 100 406 00:02:31 133 462 00:24:47 12:23 min/m
161 681 Joy BEHNKEN 486 01:47:39 181 774 3:23 sec/100m 00:10:09 171 763 00:08:38 157 640 00:58:34 10.2 m/hr 157 685 00:04:06 141 529 00:26:11 13:05 min/m
162 683 Patricia KRUGER 864 01:47:43 90 314 2:17 sec/100m 00:06:53 108 451 00:03:47 168 716 01:06:18 9.0 m/hr 95 389 00:02:27 150 608 00:28:17 14:08 min/m
163 690 Andy AGUIRRE 12 01:48:32 169 736 2:53 sec/100m 00:08:41 26 95 00:02:00 164 697 01:03:21 9.5 m/hr 52 167 00:01:50 172 720 00:32:38 16:19 min/m
164 703 Megan SMITH 646 01:50:19 140 566 2:30 sec/100m 00:07:32 154 647 00:05:05 153 625 00:57:48 10.4 m/hr 165 729 00:04:48 177 757 00:35:04 17:32 min/m
165 709 Rachel MARKWORTH 823 01:51:09 64 211 2:13 sec/100m 00:06:41 76 303 00:03:07 169 723 01:07:31 8.9 m/hr 124 486 00:02:48 165 690 00:31:01 15:30 min/m
166 717 Jessica MANDALA 630 01:52:32 163 704 2:47 sec/100m 00:08:21 150 630 00:04:53 140 552 00:54:07 11.1 m/hr 136 570 00:03:14 182 787 00:41:54 20:57 min/m
167 721 Joanna SMITH 322 01:52:58 168 733 2:51 sec/100m 00:08:35 167 746 00:07:05 165 706 01:04:18 9.3 m/hr 144 609 00:03:30 158 652 00:29:27 14:43 min/m
168 739 Jessica BROWN 612 01:55:41 136 556 2:30 sec/100m 00:07:31 170 762 00:08:34 166 707 01:04:21 9.3 m/hr 115 458 00:02:43 169 715 00:32:30 16:15 min/m
169 742 Amy HAVARD 440 01:56:02 73 257 2:15 sec/100m 00:06:46 164 725 00:06:22 171 735 01:08:43 8.7 m/hr 92 375 00:02:25 168 705 00:31:44 15:52 min/m
170 746 Mandy KUTZ 818 01:57:20 182 776 3:26 sec/100m 00:10:19 180 779 00:09:16 161 682 01:01:57 9.7 m/hr 175 772 00:06:54 153 629 00:28:52 14:26 min/m
171 750 Todd N Tiffany SANDERS 771 01:57:25 126 515 2:27 sec/100m 00:07:21 162 699 00:05:47 174 741 01:08:57 8.7 m/hr 118 465 00:02:44 171 717 00:32:34 16:17 min/m
172 753 Alicia MCGUFFIN 969 01:58:33 53 189 2:12 sec/100m 00:06:38 151 632 00:04:54 162 684 01:02:00 9.7 m/hr 182 789 00:21:34 113 399 00:23:23 11:41 min/m
173 763 Amanda BURNLEY 730 02:02:40 167 728 2:50 sec/100m 00:08:32 117 482 00:03:57 177 757 01:12:58 8.2 m/hr 146 614 00:03:32 173 735 00:33:39 16:49 min/m
174 766 Amy STINSON 325 02:03:17 54 190 2:12 sec/100m 00:06:38 177 775 00:09:07 175 747 01:10:40 8.5 m/hr 130 530 00:03:01 176 741 00:33:49 16:54 min/m
175 767 Tanya DUELM 679 02:03:24 77 263 2:15 sec/100m 00:06:47 173 769 00:08:58 143 573 00:55:05 10.9 m/hr 181 788 00:18:48 174 737 00:33:44 16:52 min/m
176 769 Lauren SKINNER 321 02:03:42 97 371 2:19 sec/100m 00:06:59 175 771 00:08:59 149 614 00:57:13 10.5 m/hr 180 786 00:16:41 175 740 00:33:48 16:54 min/m
177 772 Elaine SUERTE 716 02:04:15 170 738 2:54 sec/100m 00:08:44 168 751 00:07:25 178 759 01:13:25 8.2 m/hr 159 703 00:04:24 163 677 00:30:15 15:07 min/m
178 776 Angie CUMMINGS 674 02:04:59 172 740 2:55 sec/100m 00:08:47 181 781 00:10:02 180 772 01:19:42 7.5 m/hr 174 761 00:05:55 66 236 00:20:30 10:15 min/m
179 777 Heather ZIMMERMAN 722 02:05:05 174 742 2:56 sec/100m 00:08:50 182 782 00:10:03 179 771 01:19:41 7.5 m/hr 173 760 00:05:55 70 241 00:20:34 10:17 min/m
180 779 Railea SANDOVAL 644 02:05:25 177 758 3:05 sec/100m 00:09:16 178 776 00:09:07 176 755 01:12:24 8.3 m/hr 169 739 00:05:08 159 653 00:29:28 14:44 min/m
181 781 Jeshanna FORRISTER 739 02:06:31 72 248 2:15 sec/100m 00:06:45 156 653 00:05:13 181 779 01:23:23 7.2 m/hr 108 438 00:02:38 152 617 00:28:30 14:15 min/m
182 796 Lynda DE LA GARZA 795 02:27:52 116 470 2:24 sec/100m 00:07:14 132 547 00:04:21 182 785 01:37:23 6.2 m/hr 142 592 00:03:23 180 762 00:35:29 17:44 min/m
Ages 40 - 44
1 7 Kristen WEATHERS 336 01:00:22 14 63 2:04 sec/100m 00:06:12 7 44 00:01:40 1 4 00:33:53 17.7 m/hr 30 149 00:01:48 6 34 00:16:47 8:23 min/m
2 9 Melissa WILLIAMSON 340 01:01:24 12 48 2:01 sec/100m 00:06:04 28 156 00:02:19                      
3 13 Kiesha YOUENS 721 01:02:45 1 2 1:49 sec/100m 00:05:27 16 97 00:02:01 2 11 00:34:32 17.4 m/hr 4 25 00:01:14 34 168 00:19:29 9:44 min/m
4 14 Sharon BEDFORD 376 01:02:53 25 131 2:09 sec/100m 00:06:29 46 242 00:02:45 3 12 00:34:36 17.3 m/hr 69 364 00:02:23 5 31 00:16:38 8:19 min/m
5 15 Pamela COCKRUM 170 01:02:57 114 535 2:28 sec/100m 00:07:26 6 41 00:01:36 4 13 00:34:54 17.2 m/hr 35 185 00:01:53 11 45 00:17:06 8:33 min/m
6 20 Andrea DAVIDSON 137 01:04:00 5 21 1:57 sec/100m 00:05:52 17 103 00:02:03 6 22 00:36:14 16.6 m/hr 22 100 00:01:38 21 91 00:18:11 9:05 min/m
7 28 Amanda FEYRER 806 01:05:37 55 303 2:17 sec/100m 00:06:52 63 332 00:03:15 5 15 00:35:16 17.0 m/hr 53 287 00:02:10 20 83 00:18:02 9:01 min/m
8 30 Christina REDMAN 902 01:05:39 53 296 2:17 sec/100m 00:06:51 38 198 00:02:33 7 23 00:36:25 16.5 m/hr 1 6 00:00:59 27 128 00:18:50 9:25 min/m
9 31 Nicole MUIRHEAD 5 01:05:40 18 91 2:06 sec/100m 00:06:19 81 416 00:03:40 18 92 00:38:56 15.4 m/hr 5 30 00:01:17 1 8 00:15:27 7:43 min/m
10 39 Jennifer BOCK 152 01:06:21 37 218 2:13 sec/100m 00:06:41 12 87 00:01:56 20 98 00:39:01 15.4 m/hr 13 61 00:01:26 12 50 00:17:15 8:37 min/m
11 40 Nicole FLORES 187 01:06:28 11 41 2:00 sec/100m 00:06:01 5 33 00:01:33 11 71 00:38:11 15.7 m/hr 12 60 00:01:25 32 155 00:19:16 9:38 min/m
12 44 Melissa SANKEY 645 01:06:57 67 349 2:19 sec/100m 00:06:57 58 317 00:03:12 32 132 00:40:06 15.0 m/hr 2 8 00:01:02 3 13 00:15:40 7:50 min/m
13 47 Jennifer ELSASSER 1 01:07:05 8 36 1:59 sec/100m 00:05:59 42 214 00:02:38 34 136 00:40:13 14.9 m/hr 9 39 00:01:20 8 37 00:16:53 8:26 min/m
14 58 Lisa SANCHEZ 839 01:08:03 69 353 2:19 sec/100m 00:06:57 48 246 00:02:47 12 72 00:38:13 15.7 m/hr 88 448 00:02:40 13 54 00:17:23 8:41 min/m
15 59 Michelle O'ROURKE 100 01:08:04 47 280 2:16 sec/100m 00:06:49 10 80 00:01:54 21 102 00:39:10 15.3 m/hr 18 82 00:01:35 24 108 00:18:33 9:16 min/m
16 62 Tonya TREPINSKI 132 01:08:17 132 628 2:36 sec/100m 00:07:50 24 142 00:02:14 28 124 00:39:51 15.1 m/hr 63 323 00:02:16 4 19 00:16:03 8:01 min/m
17 66 Rosa VADEN 845 01:08:32 26 133 2:10 sec/100m 00:06:30 34 180 00:02:26 8 24 00:36:29 16.4 m/hr 107 557 00:03:11 38 192 00:19:55 9:57 min/m
18 68 Rita MATHISEN 416 01:08:34 50 287 2:16 sec/100m 00:06:50 66 345 00:03:19 17 91 00:38:55 15.4 m/hr 14 66 00:01:28 19 78 00:17:59 8:59 min/m
19 73 Dawn PISCITELLI 705 01:08:55 39 226 2:14 sec/100m 00:06:42 21 136 00:02:12 39 188 00:41:50 14.3 m/hr 7 34 00:01:18 7 36 00:16:50 8:25 min/m
20 92 Michelle GAGNON 742 01:10:12 151 722 2:49 sec/100m 00:08:27 23 140 00:02:14 16 87 00:38:52 15.4 m/hr 121 613 00:03:32 10 44 00:17:05 8:32 min/m
21 93 Shannon INMAN 221 01:10:14 48 282 2:16 sec/100m 00:06:49 82 424 00:03:42 29 127 00:39:58 15.0 m/hr 59 306 00:02:13 15 60 00:17:31 8:45 min/m
22 94 Ella ALVAREZ 608 01:10:18 29 153 2:10 sec/100m 00:06:32 19 115 00:02:05 33 135 00:40:10 14.9 m/hr 66 337 00:02:19 30 150 00:19:11 9:35 min/m
23 97 Sonia ROCHA 560 01:10:21 46 278 2:16 sec/100m 00:06:49 11 83 00:01:55 15 84 00:38:45 15.5 m/hr 54 290 00:02:10 47 249 00:20:40 10:20 min/m
24 98 Christine DELEON 90 01:10:22 96 447 2:23 sec/100m 00:07:11 47 245 00:02:47 14 81 00:38:33 15.6 m/hr 144 682 00:04:03 17 70 00:17:47 8:53 min/m
25 105 Natalie ODELL 270 01:10:40 78 391 2:20 sec/100m 00:07:02 27 155 00:02:19 19 96 00:39:00 15.4 m/hr 57 304 00:02:13 42 213 00:20:05 10:02 min/m
26 106 Jennifer ARCAYA 939 01:10:41 3 7 1:52 sec/100m 00:05:37 75 371 00:03:28 26 113 00:39:32 15.2 m/hr 39 223 00:01:59 40 205 00:20:02 10:01 min/m
27 125 Yvette HERRERA 687 01:11:58 86 421 2:22 sec/100m 00:07:07 36 188 00:02:28 44 212 00:42:24 14.1 m/hr 3 12 00:01:06 28 129 00:18:50 9:25 min/m
28 135 Jenny SWAIN 598 01:12:15 35 212 2:13 sec/100m 00:06:41 55 297 00:03:04 30 128 00:40:01 15.0 m/hr 77 388 00:02:27 39 201 00:20:00 10:00 min/m
29 137 Moya CRAVEN 672 01:12:16 88 429 2:22 sec/100m 00:07:08 91 453 00:03:48 38 178 00:41:38 14.4 m/hr 64 326 00:02:17 14 56 00:17:24 8:42 min/m
30 138 Kasey JOHNSON 227 01:12:23 90 435 2:23 sec/100m 00:07:09 45 233 00:02:43 41 197 00:42:07 14.2 m/hr 11 43 00:01:20 29 146 00:19:02 9:31 min/m
31 142 Heide OSBORN 272 01:12:48 71 357 2:19 sec/100m 00:06:58 53 289 00:03:02 46 218 00:42:37 14.1 m/hr 38 217 00:01:58 22 93 00:18:13 9:06 min/m
32 148 Dominique PEACE 277 01:13:02 43 270 2:16 sec/100m 00:06:48 26 149 00:02:16 73 322 00:45:40 13.1 m/hr 8 37 00:01:19 9 40 00:16:57 8:28 min/m
33 149 Cherice WHITEHEAD 133 01:13:05 154 749 3:00 sec/100m 00:09:01 15 93 00:01:59 45 214 00:42:29 14.1 m/hr 36 196 00:01:55 16 63 00:17:40 8:50 min/m
34 153 Karen SHOPOFF ROOFF 319 01:13:15 22 115 2:08 sec/100m 00:06:25 59 325 00:03:13 77 349 00:46:27 12.9 m/hr 19 86 00:01:36 2 11 00:15:33 7:46 min/m
35 161 Erin ORTIZ 450 01:13:42 68 351 2:19 sec/100m 00:06:57 13 88 00:01:57 35 142 00:40:41 14.7 m/hr 32 162 00:01:50 67 335 00:22:15 11:07 min/m
36 166 Sarah BENSON 15 01:13:52 122 570 2:31 sec/100m 00:07:34 32 164 00:02:22 36 147 00:40:51 14.7 m/hr 50 274 00:02:07 51 264 00:20:55 10:27 min/m
37 167 Ursula MEZA 30 01:13:54 152 734 2:52 sec/100m 00:08:38 22 138 00:02:14 25 111 00:39:30 15.2 m/hr 46 259 00:02:05 55 291 00:21:25 10:42 min/m
38 177 Catherine MILLER 700 01:14:34 41 255 2:15 sec/100m 00:06:46 86 436 00:03:43 43 210 00:42:23 14.2 m/hr 60 316 00:02:15 33 164 00:19:25 9:42 min/m
39 178 Jean LOVELACE 121 01:14:38 32 179 2:12 sec/100m 00:06:37 25 144 00:02:15 23 108 00:39:23 15.2 m/hr 113 586 00:03:20 79 375 00:23:01 11:30 min/m
40 183 Gina TREVINO-KUKAL 470 01:14:57 83 402 2:21 sec/100m 00:07:04 62 329 00:03:14 49 233 00:42:59 14.0 m/hr 99 521 00:02:58 25 112 00:18:39 9:19 min/m
41 184 Caroline LONG 240 01:15:03 34 194 2:13 sec/100m 00:06:39 18 112 00:02:04 52 246 00:43:12 13.9 m/hr 10 40 00:01:20 58 304 00:21:46 10:53 min/m
42 201 Stephanie ROBERTS 767 01:16:01 2 4 1:50 sec/100m 00:05:31 40 212 00:02:37 53 247 00:43:17 13.9 m/hr 49 268 00:02:06 69 346 00:22:27 11:13 min/m
43 202 Tracy NORRIS 635 01:16:01 40 245 2:15 sec/100m 00:06:45 39 209 00:02:37 31 130 00:40:02 15.0 m/hr 40 234 00:02:02 91 449 00:24:34 12:17 min/m
44 205 Lori WOEHL 341 01:16:11 59 321 2:17 sec/100m 00:06:53 69 355 00:03:22 71 317 00:45:29 13.2 m/hr 82 414 00:02:32 18 74 00:17:53 8:56 min/m
45 208 Ronda RODRIGUEZ 126 01:16:15 28 149 2:10 sec/100m 00:06:32 35 185 00:02:26 55 261 00:43:37 13.8 m/hr 87 443 00:02:38 52 267 00:21:00 10:30 min/m
46 211 Traci RICKETSON 597 01:16:27 92 441 2:23 sec/100m 00:07:10 106 521 00:04:10 27 115 00:39:33 15.2 m/hr 103 537 00:03:03 70 348 00:22:29 11:14 min/m
47 221 Jennifer DOMILISE 377 01:16:59 138 668 2:40 sec/100m 00:08:02 33 177 00:02:25 54 256 00:43:27 13.8 m/hr 117 599 00:03:26 37 178 00:19:36 9:48 min/m
48 224 Heather REIN 296 01:17:04 141 674 2:41 sec/100m 00:08:05 83 425 00:03:42 37 173 00:41:27 14.5 m/hr 157 746 00:05:29 23 97 00:18:20 9:10 min/m
49 230 Kathy DELANO 503 01:17:14 120 564 2:30 sec/100m 00:07:32 50 253 00:02:49 72 318 00:45:33 13.2 m/hr 48 263 00:02:05 31 151 00:19:13 9:36 min/m
50 245 Lori BURNETT 458 01:17:45 7 31 1:59 sec/100m 00:05:57 89 447 00:03:46 57 269 00:43:52 13.7 m/hr 17 81 00:01:34 73 353 00:22:33 11:16 min/m
51 254 Lee Ann BROWN 156 01:18:20 107 491 2:25 sec/100m 00:07:17 97 479 00:03:56 48 232 00:42:59 14.0 m/hr 102 534 00:03:02 54 272 00:21:04 10:32 min/m
52 255 Shakti DALAL 675 01:18:20 126 586 2:32 sec/100m 00:07:36 49 250 00:02:48 51 238 00:43:05 13.9 m/hr 100 525 00:02:59 60 310 00:21:50 10:55 min/m
53 258 Silke SACHER-ZANTMAN 398 01:18:24 31 160 2:11 sec/100m 00:06:33 43 220 00:02:40 59 276 00:44:04 13.6 m/hr 16 77 00:01:32 83 412 00:23:32 11:46 min/m
54 260 Poppy JONES 37 01:18:27 105 477 2:25 sec/100m 00:07:15 85 435 00:03:43 42 209 00:42:21 14.2 m/hr 96 481 00:02:47 68 338 00:22:17 11:08 min/m
55 263 Susan SCHEUER 109 01:18:37 54 300 2:17 sec/100m 00:06:51 31 160 00:02:21 10 50 00:37:38 15.9 m/hr 111 579 00:03:17 121 613 00:28:28 14:14 min/m
56 265 Mitzi GRAY 885 01:18:43 73 364 2:19 sec/100m 00:06:59 79 406 00:03:36 13 79 00:38:29 15.6 m/hr 119 607 00:03:30 107 526 00:26:09 13:04 min/m
57 266 Amy TAYLOR 930 01:18:49 101 467 2:24 sec/100m 00:07:14 105 517 00:04:09 22 103 00:39:11 15.3 m/hr 142 674 00:03:58 89 439 00:24:15 12:07 min/m
58 267 Wendy ROHAN 561 01:18:56 51 288 2:16 sec/100m 00:06:50 120 587 00:04:38 60 280 00:44:14 13.6 m/hr 134 646 00:03:42 35 170 00:19:31 9:45 min/m
59 268 Joy HERTEL 520 01:19:06 121 565 2:30 sec/100m 00:07:32 51 254 00:02:49 24 109 00:39:27 15.2 m/hr 129 632 00:03:38 98 498 00:25:37 12:48 min/m
60 272 Lisa DUFRENE 505 01:19:15 131 626 2:36 sec/100m 00:07:49 3 7 00:01:14 84 403 00:48:04 12.5 m/hr 6 33 00:01:18 49 257 00:20:49 10:24 min/m
61 273 Kirsten SCHUTT 467 01:19:21 97 452 2:24 sec/100m 00:07:12 99 499 00:04:03 56 267 00:43:46 13.7 m/hr 47 261 00:02:05 66 332 00:22:13 11:06 min/m
62 280 Sarah HILL 521 01:19:34 70 355 2:19 sec/100m 00:06:57 64 335 00:03:17 62 285 00:44:24 13.5 m/hr 43 242 00:02:03 76 370 00:22:51 11:25 min/m
63 307 Jennifer COURY 499 01:21:19 74 365 2:19 sec/100m 00:06:59 129 635 00:04:57 76 335 00:46:04 13.0 m/hr 76 387 00:02:27 50 260 00:20:52 10:26 min/m
64 308 Mandi MORAN 260 01:21:19 10 40 2:00 sec/100m 00:06:01 84 434 00:03:43 79 394 00:47:47 12.6 m/hr 58 305 00:02:13 57 299 00:21:33 10:46 min/m
65 310 Melissa LORBER 242 01:21:25 63 341 2:18 sec/100m 00:06:56 14 92 00:01:59 66 297 00:44:52 13.4 m/hr 21 91 00:01:37 101 512 00:25:59 12:59 min/m
66 315 Tara WALKER LEON 579 01:21:29 79 393 2:20 sec/100m 00:07:02 76 393 00:03:33 58 272 00:43:59 13.6 m/hr 33 170 00:01:51 94 475 00:25:01 12:30 min/m
67 316 Sofia RICHES 299 01:21:29 24 130 2:09 sec/100m 00:06:29 88 443 00:03:45 70 313 00:45:21 13.2 m/hr 67 345 00:02:20 84 413 00:23:33 11:46 min/m
68 326 Jennifer TELLEPSEN 874 01:22:02 16 69 2:04 sec/100m 00:06:13 73 366 00:03:26 95 481 00:51:04 11.7 m/hr 23 109 00:01:41 36 176 00:19:36 9:48 min/m
69 331 Monica VRANA 719 01:22:29 87 425 2:22 sec/100m 00:07:07 150 737 00:06:36 65 292 00:44:40 13.4 m/hr 52 284 00:02:10 63 317 00:21:55 10:57 min/m
70 334 Rachel VILLA 578 01:22:31 106 484 2:25 sec/100m 00:07:16 77 399 00:03:35 64 289 00:44:32 13.5 m/hr 101 532 00:03:01 88 430 00:24:05 12:02 min/m
71 340 Florence LOPEZ 241 01:22:43 139 671 2:41 sec/100m 00:08:03 61 328 00:03:13 9 34 00:36:53 16.3 m/hr 92 473 00:02:45 143 706 00:31:45 15:52 min/m
72 343 Rebecca HERNANDEZ 747 01:22:46 27 143 2:10 sec/100m 00:06:31 78 404 00:03:35 83 402 00:48:03 12.5 m/hr 84 433 00:02:36 64 318 00:21:58 10:59 min/m
73 344 Heather MULDOON 418 01:22:50 52 292 2:16 sec/100m 00:06:50 68 354 00:03:21 47 231 00:42:59 14.0 m/hr 127 628 00:03:37 102 515 00:26:01 13:00 min/m
74 345 Michell BEALS 456 01:22:56 134 648 2:38 sec/100m 00:07:56 29 157 00:02:19 50 236 00:43:03 13.9 m/hr 124 618 00:03:33 105 520 00:26:02 13:01 min/m
75 356 Janine LORD 353 01:23:35 13 54 2:02 sec/100m 00:06:08 131 645 00:05:03 78 367 00:46:54 12.8 m/hr 80 412 00:02:32 77 373 00:22:57 11:28 min/m
76 360 Jennifer COFFEE 498 01:23:52 66 348 2:19 sec/100m 00:06:57 93 469 00:03:53 69 311 00:45:18 13.2 m/hr 85 434 00:02:36 96 481 00:25:06 12:33 min/m
77 366 Kelly MARTIN 251 01:24:07 148 705 2:47 sec/100m 00:08:22 96 476 00:03:55 61 283 00:44:21 13.5 m/hr 72 373 00:02:25 95 477 00:25:03 12:31 min/m
78 370 Rebecca SPIEKERMAN 324 01:24:15 93 443 2:23 sec/100m 00:07:11 145 724 00:06:18 63 286 00:44:30 13.5 m/hr 83 424 00:02:34 86 418 00:23:39 11:49 min/m
79 372 Jocelin HSIA 117 01:24:19 82 401 2:21 sec/100m 00:07:04 74 369 00:03:27 67 300 00:45:00 13.3 m/hr 146 686 00:04:06 93 455 00:24:41 12:20 min/m
80 386 Jennifer REED 294 01:25:07 98 453 2:24 sec/100m 00:07:12 1 1 00:01:05 90 464 00:50:27 11.9 m/hr 25 114 00:01:42 92 451 00:24:39 12:19 min/m
81 398 Courtney LYNCH 922 01:25:46 85 420 2:22 sec/100m 00:07:07 4 14 00:01:22 87 429 00:49:19 12.2 m/hr 143 678 00:04:02 87 425 00:23:54 11:57 min/m
82 407 Danielle CALBERT 667 01:26:27 57 312 2:17 sec/100m 00:06:52 107 523 00:04:11 68 306 00:45:13 13.3 m/hr 120 608 00:03:30 111 547 00:26:39 13:19 min/m
83 411 Catherine DUNHAM 364 01:26:34 45 275 2:16 sec/100m 00:06:48 57 316 00:03:11 85 409 00:48:20 12.4 m/hr 141 668 00:03:55 90 441 00:24:16 12:08 min/m
84 420 Kylie GIANCOTTI 196 01:27:04 145 686 2:44 sec/100m 00:08:12 115 578 00:04:35 88 436 00:49:31 12.1 m/hr 41 236 00:02:02 75 362 00:22:43 11:21 min/m
85 423 Lisa KRENEK 971 01:27:06 144 684 2:44 sec/100m 00:08:12 37 197 00:02:33 98 501 00:52:04 11.5 m/hr 29 143 00:01:47 71 349 00:22:29 11:14 min/m
86 426 Melinda DALE 176 01:27:18 62 338 2:18 sec/100m 00:06:56 124 609 00:04:45 89 455 00:50:04 12.0 m/hr 70 365 00:02:23 81 379 00:23:08 11:34 min/m
87 430 Macey KRPEC 692 01:27:29 15 67 2:04 sec/100m 00:06:12 2 3 00:01:10 80 395 00:47:48 12.5 m/hr 104 538 00:03:03 125 641 00:29:14 14:37 min/m
88 431 Amy BELDING 727 01:27:33 109 499 2:26 sec/100m 00:07:19 127 627 00:04:52 102 525 00:52:57 11.3 m/hr 68 356 00:02:21 41 208 00:20:03 10:01 min/m
89 438 Jennifer SHARP 569 01:27:59 89 430 2:22 sec/100m 00:07:08 112 567 00:04:31 100 518 00:52:47 11.4 m/hr 44 245 00:02:03 56 293 00:21:27 10:43 min/m
90 441 Caroline HAFLING 433 01:28:07 111 506 2:26 sec/100m 00:07:20 103 513 00:04:08 96 484 00:51:18 11.7 m/hr 28 137 00:01:46 85 414 00:23:34 11:47 min/m
91 450 Karen CEREZO 615 01:28:37 4 16 1:55 sec/100m 00:05:46 102 510 00:04:07 121 606 00:56:57 10.5 m/hr 20 89 00:01:37 44 217 00:20:08 10:04 min/m
92 456 Norma SCOTT 566 01:28:55 108 496 2:26 sec/100m 00:07:18 94 470 00:03:53 105 539 00:53:26 11.2 m/hr 74 378 00:02:25 61 312 00:21:51 10:55 min/m
93 459 Susan GRAHAM 201 01:29:27 49 285 2:16 sec/100m 00:06:50 8 56 00:01:44 94 474 00:50:52 11.8 m/hr 86 442 00:02:38 115 574 00:27:21 13:40 min/m
94 462 Karen DAY 19 01:29:33 6 26 1:58 sec/100m 00:05:56 52 260 00:02:51 99 507 00:52:16 11.5 m/hr 75 384 00:02:26 103 518 00:26:02 13:01 min/m
95 466 Gloria FUENTES 682 01:30:02 84 410 2:21 sec/100m 00:07:05 135 683 00:05:33 86 426 00:49:15 12.2 m/hr 158 748 00:05:31 74 357 00:22:36 11:18 min/m
96 482 Shona MATHIE 415 01:30:36 23 127 2:09 sec/100m 00:06:27 111 551 00:04:23 113 577 00:55:13 10.9 m/hr 91 468 00:02:44 59 307 00:21:47 10:53 min/m
97 486 Elizabeth EDGAR 680 01:30:42 112 513 2:27 sec/100m 00:07:21 72 364 00:03:24 40 191 00:41:51 14.3 m/hr 132 638 00:03:39 156 752 00:34:24 17:12 min/m
98 490 Melissa WOODWARD 343 01:30:47 115 540 2:29 sec/100m 00:07:27 110 538 00:04:15 92 467 00:50:36 11.9 m/hr 34 176 00:01:52 109 543 00:26:35 13:17 min/m
99 504 Kerrie DEMARCO 474 01:31:33 117 549 2:29 sec/100m 00:07:29 162 786 00:12:08 82 399 00:47:57 12.5 m/hr 109 565 00:03:13 48 252 00:20:43 10:21 min/m
100 506 Courtney MORAN 259 01:31:36 143 683 2:43 sec/100m 00:08:11 100 500 00:04:03 91 465 00:50:34 11.9 m/hr 79 399 00:02:29 108 533 00:26:16 13:08 min/m
101 507 Melanie PITA 282 01:31:37 77 390 2:20 sec/100m 00:07:02 44 223 00:02:41 129 652 00:59:52 10.0 m/hr 24 111 00:01:42 45 229 00:20:18 10:09 min/m
102 508 Sharlean SCHAEFER 307 01:31:55 127 608 2:34 sec/100m 00:07:42 98 496 00:04:01 119 600 00:56:26 10.6 m/hr 27 125 00:01:45 65 321 00:21:58 10:59 min/m
103 509 Ramsey JANKOWSKI 442 01:32:06 19 93 2:06 sec/100m 00:06:19 119 585 00:04:37 111 563 00:54:29 11.0 m/hr 122 615 00:03:32 80 377 00:23:07 11:33 min/m
104 515 Monisha ARYA 965 01:32:20 103 472 2:24 sec/100m 00:07:14 117 581 00:04:36 110 562 00:54:28 11.0 m/hr 145 684 00:04:05 62 315 00:21:54 10:57 min/m
105 520 Lara GLYNN 514 01:32:39 104 473 2:25 sec/100m 00:07:15 139 697 00:05:46 104 537 00:53:16 11.3 m/hr 114 593 00:03:23 78 374 00:22:57 11:28 min/m
106 524 Wendy PETERSEN 279 01:33:04 156 753 3:02 sec/100m 00:09:07 101 502 00:04:04 81 398 00:47:54 12.5 m/hr 147 690 00:04:09 117 591 00:27:48 13:54 min/m
107 528 Melissa ZAMORA 900 01:33:24 119 558 2:30 sec/100m 00:07:31 56 315 00:03:11 101 521 00:52:53 11.3 m/hr 135 649 00:03:44 104 519 00:26:02 13:01 min/m
108 535 Alison KING 413 01:33:53 36 216 2:13 sec/100m 00:06:41 92 462 00:03:51 124 628 00:57:56 10.4 m/hr 97 497 00:02:52 72 350 00:22:29 11:14 min/m
109 536 Jennie KIRK 136 01:33:53 38 220 2:14 sec/100m 00:06:42 67 349 00:03:21 109 556 00:54:17 11.1 m/hr 62 322 00:02:16 114 570 00:27:16 13:38 min/m
110 538 Dolores NAVARRO 760 01:34:00 129 620 2:36 sec/100m 00:07:48 128 634 00:04:56 97 490 00:51:39 11.6 m/hr 137 663 00:03:52 99 505 00:25:43 12:51 min/m
111 541 Lynn THORESON 385 01:34:12 124 578 2:32 sec/100m 00:07:36 70 357 00:03:23 93 468 00:50:40 11.8 m/hr 123 617 00:03:33 124 633 00:28:59 14:29 min/m
112 544 Gina GREEN 515 01:34:18 17 79 2:05 sec/100m 00:06:16 152 740 00:06:41 74 324 00:45:44 13.1 m/hr 160 758 00:05:54 132 660 00:29:41 14:50 min/m
113 558 Lara FRIEL 115 01:35:19 147 701 2:46 sec/100m 00:08:19 65 336 00:03:17 106 540 00:53:28 11.2 m/hr 65 330 00:02:17 119 597 00:27:56 13:58 min/m
114 564 Ruthie REYES 42 01:35:53 64 346 2:18 sec/100m 00:06:56 144 717 00:06:08 75 329 00:45:48 13.1 m/hr 131 637 00:03:39 149 731 00:33:19 16:39 min/m
115 585 Tara KNIGHT 919 01:37:24 9 38 2:00 sec/100m 00:06:00 54 293 00:03:02 132 663 01:00:30 9.9 m/hr 42 239 00:02:02 100 508 00:25:48 12:54 min/m
116 589 Sybil CAMACHO 75 01:37:37 94 445 2:23 sec/100m 00:07:11 30 158 00:02:20 117 595 00:56:10 10.7 m/hr 78 397 00:02:29 127 647 00:29:25 14:42 min/m
117 595 Andrea WIENEN 850 01:38:00 149 709 2:47 sec/100m 00:08:23 143 716 00:06:07 116 590 00:55:53 10.7 m/hr 15 70 00:01:29 106 523 00:26:06 13:03 min/m
118 597 Nora RODRIGUEZ 643 01:38:07 60 325 2:17 sec/100m 00:06:53 149 736 00:06:35 135 681 01:01:54 9.7 m/hr 139 666 00:03:54 26 127 00:18:47 9:23 min/m
119 598 Amy MYHAND 267 01:38:09 21 114 2:08 sec/100m 00:06:24 41 213 00:02:37 120 604 00:56:47 10.6 m/hr 71 371 00:02:24 136 667 00:29:54 14:57 min/m
120 604 Malinda COOK 883 01:38:35 56 305 2:17 sec/100m 00:06:52 87 441 00:03:45 112 571 00:54:48 10.9 m/hr 56 303 00:02:13 139 685 00:30:56 15:28 min/m
121 605 Tanya GALINGER 512 01:38:48 153 735 2:53 sec/100m 00:08:40 104 514 00:04:08 115 584 00:55:30 10.8 m/hr 112 585 00:03:20 113 565 00:27:08 13:34 min/m
122 620 Deborah REINAGEL 424 01:40:09 58 313 2:17 sec/100m 00:06:52 118 582 00:04:36 139 705 01:04:06 9.4 m/hr 138 664 00:03:52 46 248 00:20:40 10:20 min/m
123 627 Sharla DEMEDEIROS 910 01:41:52 72 362 2:19 sec/100m 00:06:58 122 606 00:04:45 133 677 01:01:15 9.8 m/hr 45 251 00:02:04 112 553 00:26:49 13:24 min/m
124 631 Carmina ROBUCK 769 01:42:19 76 383 2:20 sec/100m 00:07:01 109 537 00:04:14 123 626 00:57:49 10.4 m/hr 115 595 00:03:24 134 663 00:29:48 14:54 min/m
125 636 Lisa OBSHEATZ 546 01:42:38 102 469 2:24 sec/100m 00:07:14 153 743 00:06:45 127 646 00:58:47 10.2 m/hr 110 566 00:03:13 110 546 00:26:37 13:18 min/m
126 637 Sally REGIAN 555 01:42:41 80 398 2:21 sec/100m 00:07:03 20 127 00:02:09 137 693 01:02:39 9.6 m/hr 98 509 00:02:55 118 594 00:27:53 13:56 min/m
127 649 Sandy STURM 32 01:44:04 158 759 3:06 sec/100m 00:09:18 95 474 00:03:54 148 730 01:08:04 8.8 m/hr 26 122 00:01:44 53 271 00:21:02 10:31 min/m
128 653 Yvette GWYNNE 367 01:44:17 44 272 2:16 sec/100m 00:06:48 142 713 00:06:03 108 555 00:54:12 11.1 m/hr 149 698 00:04:20 147 725 00:32:51 16:25 min/m
129 668 Jennifer BUCK 391 01:46:07 142 680 2:43 sec/100m 00:08:10 114 577 00:04:34 138 695 01:02:58 9.5 m/hr 90 461 00:02:43 116 584 00:27:39 13:49 min/m
130 670 Margarita GONZALEZ 623 01:46:32 140 672 2:41 sec/100m 00:08:04 151 738 00:06:39 118 597 00:56:15 10.7 m/hr 94 476 00:02:46 144 721 00:32:46 16:23 min/m
131 674 Marnie YOUNG 135 01:47:06 61 329 2:18 sec/100m 00:06:54 147 734 00:06:34 150 753 01:11:40 8.4 m/hr 31 158 00:01:49 43 216 00:20:06 10:03 min/m
132 684 Julie CRUM 734 01:47:55 81 400 2:21 sec/100m 00:07:03 108 531 00:04:12 140 711 01:05:36 9.1 m/hr 51 282 00:02:09 123 630 00:28:53 14:26 min/m
133 687 Crystal SHORT 384 01:48:20 95 446 2:23 sec/100m 00:07:11 71 361 00:03:24 122 613 00:57:08 10.5 m/hr 155 716 00:04:34 160 767 00:36:02 18:01 min/m
134 688 Cathy FENZ 804 01:48:23 75 373 2:20 sec/100m 00:07:00 134 671 00:05:21 147 726 01:07:42 8.9 m/hr 93 475 00:02:46 97 495 00:25:32 12:46 min/m
135 693 Chandra ACHBERGER 660 01:48:49 128 611 2:35 sec/100m 00:07:45 148 735 00:06:35 130 656 01:00:11 10.0 m/hr 156 720 00:04:36 131 659 00:29:40 14:50 min/m
136 696 Alyssa RESTIVO 558 01:49:17 110 502 2:26 sec/100m 00:07:19 161 785 00:10:38 107 553 00:54:10 11.1 m/hr 148 697 00:04:19 146 724 00:32:49 16:24 min/m
137 697 Shemila SIDDIQUE CHANCELLOR 774 01:49:18 150 721 2:49 sec/100m 00:08:27 133 664 00:05:18 128 648 00:59:00 10.2 m/hr 81 413 00:02:32 154 743 00:33:59 16:59 min/m
138 699 Jennifer JOZWIAK 526 01:49:27 30 157 2:11 sec/100m 00:06:33 126 622 00:04:50 136 687 01:02:20 9.6 m/hr 55 294 00:02:11 150 733 00:33:31 16:45 min/m
139 702 Candi IHNEN 524 01:50:08 65 347 2:18 sec/100m 00:06:56 156 754 00:07:45 114 580 00:55:19 10.8 m/hr 154 714 00:04:32 159 764 00:35:34 17:47 min/m
140 704 Donnis ATKINS 146 01:50:19 159 760 3:06 sec/100m 00:09:18 90 448 00:03:46 103 534 00:53:05 11.3 m/hr 161 781 00:11:21 145 723 00:32:47 16:23 min/m
141 713 Laurie GINTHER 513 01:51:49 137 663 2:40 sec/100m 00:08:00 140 702 00:05:48 131 662 01:00:29 9.9 m/hr 136 653 00:03:45 153 739 00:33:45 16:52 min/m
142 714 Danor PADDEN 139 01:52:03 146 689 2:44 sec/100m 00:08:14 80 409 00:03:37 134 678 01:01:18 9.8 m/hr 37 212 00:01:57 161 773 00:36:55 18:27 min/m
143 716 Lisa DOGGETT 181 01:52:19 161 768 3:13 sec/100m 00:09:41 160 780 00:09:54 126 645 00:58:46 10.2 m/hr 130 633 00:03:38 138 678 00:30:18 15:09 min/m
144 724 Melinda KRAFT 972 01:53:25 91 438 2:23 sec/100m 00:07:10 125 619 00:04:49 145 720 01:07:22 8.9 m/hr 150 701 00:04:22 130 658 00:29:39 14:49 min/m
145 733 Lori LOZA 753 01:54:19 135 654 2:39 sec/100m 00:07:58 132 658 00:05:15 141 712 01:05:41 9.1 m/hr 153 705 00:04:26 140 687 00:30:57 15:28 min/m
146 736 Mary FOX 438 01:54:38 118 555 2:30 sec/100m 00:07:31 123 608 00:04:45 146 725 01:07:36 8.9 m/hr 128 630 00:03:37 142 693 00:31:07 15:33 min/m
147 737 Ana AMICI 478 01:54:58 33 188 2:12 sec/100m 00:06:38 159 778 00:09:16 143 715 01:05:58 9.1 m/hr 105 540 00:03:03 137 671 00:30:00 15:00 min/m
148 740 Stacy SPARKS 129 01:55:51 133 639 2:37 sec/100m 00:07:53 155 750 00:07:19 144 718 01:06:30 9.0 m/hr 106 542 00:03:06 141 691 00:31:02 15:31 min/m
149 747 Deborah TAIT 843 01:57:20 99 457 2:24 sec/100m 00:07:12 138 691 00:05:43 142 714 01:05:49 9.1 m/hr 140 667 00:03:54 157 754 00:34:40 17:20 min/m
150 748 Dusty NORMAN 828 01:57:22 113 524 2:28 sec/100m 00:07:24 116 579 00:04:35 153 758 01:13:10 8.2 m/hr 116 596 00:03:24 122 625 00:28:47 14:23 min/m
151 757 Margaret PINKSTON 938 02:00:18 20 100 2:07 sec/100m 00:06:21 60 326 00:03:13 159 769 01:19:12 7.6 m/hr 108 564 00:03:13 120 609 00:28:17 14:08 min/m
152 758 Jamie MATULA 537 02:00:28 100 466 2:24 sec/100m 00:07:14 154 745 00:06:56 154 760 01:14:00 8.1 m/hr 73 374 00:02:25 135 666 00:29:52 14:56 min/m
153 760 Nicole TORRES 717 02:01:48 130 624 2:36 sec/100m 00:07:49 121 597 00:04:42 149 746 01:10:37 8.5 m/hr 151 702 00:04:23 155 748 00:34:16 17:08 min/m
154 764 Rachel SCHNEIDER 772 02:02:44 125 585 2:32 sec/100m 00:07:36 130 636 00:04:57 152 756 01:12:55 8.2 m/hr 125 621 00:03:34 152 736 00:33:40 16:50 min/m
155 768 Samantha MASUCCI 4 02:03:27 162 773 3:21 sec/100m 00:10:04 113 573 00:04:33 156 764 01:15:19 8.0 m/hr 133 645 00:03:41 133 662 00:29:48 14:54 min/m
156 773 Donna HARMON 24 02:04:27 155 752 3:02 sec/100m 00:09:07 137 685 00:05:35 157 766 01:16:46 7.8 m/hr 118 606 00:03:30 129 651 00:29:27 14:43 min/m
157 774 Melissa STEGER 573 02:04:31 157 755 3:03 sec/100m 00:09:11 136 684 00:05:34 125 637 00:58:28 10.3 m/hr 162 790 00:21:49 128 650 00:29:27 14:43 min/m
158 775 Jo Beth STEPHENSON 715 02:04:32 123 574 2:31 sec/100m 00:07:35 9 72 00:01:50 158 768 01:19:12 7.6 m/hr 61 321 00:02:16 151 734 00:33:37 16:48 min/m
159 778 Trish WALDEN 947 02:05:21 160 764 3:09 sec/100m 00:09:27 158 773 00:09:03 151 754 01:11:53 8.3 m/hr 159 752 00:05:37 126 642 00:29:19 14:39 min/m
160 784 Tina MARROY 696 02:10:14 42 264 2:15 sec/100m 00:06:47 163 787 00:16:27 160 776 01:20:51 7.4 m/hr 95 477 00:02:46 82 398 00:23:21 11:40 min/m
161 786 Christina SOWELL 323 02:14:01 136 655 2:39 sec/100m 00:07:58 141 703 00:05:49 155 762 01:14:57 8.0 m/hr 152 704 00:04:25 162 786 00:40:49 20:24 min/m
162 791 Saundra BROWN 490 02:20:09 116 544 2:29 sec/100m 00:07:28 157 766 00:08:44 162 783 01:28:18 6.8 m/hr 89 453 00:02:41 148 727 00:32:56 16:28 min/m
163 795 Felicia TURNER 652 02:26:26 163 785 4:13 sec/100m 00:12:39 146 730 00:06:31 161 782 01:28:17 6.8 m/hr 126 622 00:03:34 158 760 00:35:22 17:41 min/m
Ages 45 - 49
1 29 Marlo CADEDDU 404 01:05:37 59 494 2:25 sec/100m 00:07:17 27 211 00:02:37 1 19 00:35:43 16.8 m/hr 4 67 00:01:29 13 104 00:18:29 9:14 min/m
2 34 Tammy GROVER 205 01:05:55 30 284 2:16 sec/100m 00:06:50 8 66 00:01:48 4 37 00:36:58 16.2 m/hr 46 362 00:02:23 10 76 00:17:55 8:57 min/m
3 41 Sharon GUTIERREZ 206 01:06:39 60 503 2:26 sec/100m 00:07:19 20 165 00:02:22 2 27 00:36:41 16.4 m/hr 33 308 00:02:13 11 81 00:18:02 9:01 min/m
4 42 Cheryl MONTGOMERY 35 01:06:41 39 376 2:20 sec/100m 00:07:00 16 118 00:02:07 14 107 00:39:22 15.2 m/hr 50 398 00:02:29 2 14 00:15:41 7:50 min/m
5 46 Stacie OTTEN 273 01:07:00 1 15 1:55 sec/100m 00:05:46 15 117 00:02:07 9 64 00:38:00 15.8 m/hr 2 45 00:01:21 21 183 00:19:45 9:52 min/m
6 48 Victoria RODRIGUEZ 642 01:07:08 67 538 2:29 sec/100m 00:07:27 11 82 00:01:55 12 85 00:38:48 15.5 m/hr 8 103 00:01:39 7 51 00:17:17 8:38 min/m
7 49 Lisa SHACKELFORD 315 01:07:11 3 28 1:58 sec/100m 00:05:56 13 105 00:02:03 19 133 00:40:08 14.9 m/hr 29 273 00:02:07 6 38 00:16:55 8:27 min/m
8 50 Katie PLUNKETT 284 01:07:19 6 46 2:01 sec/100m 00:06:04 22 179 00:02:26 8 55 00:37:51 15.8 m/hr 43 335 00:02:18 14 111 00:18:39 9:19 min/m
9 60 Jennifer JACKSON 412 01:08:14 10 88 2:06 sec/100m 00:06:18 37 299 00:03:06 6 40 00:37:08 16.2 m/hr 40 324 00:02:17 17 161 00:19:23 9:41 min/m
10 64 Jennifer BANKS 455 01:08:29 9 80 2:05 sec/100m 00:06:17 28 224 00:02:42 7 51 00:37:39 15.9 m/hr 31 286 00:02:10 20 180 00:19:40 9:50 min/m
11 65 Chris PIATT 422 01:08:30 29 283 2:16 sec/100m 00:06:49 23 187 00:02:28 5 38 00:37:03 16.2 m/hr 30 283 00:02:10 23 195 00:19:58 9:59 min/m
12 67 Maribel VELEZ 355 01:08:33 5 45 2:01 sec/100m 00:06:03 31 247 00:02:47 17 123 00:39:48 15.1 m/hr 39 318 00:02:16 8 61 00:17:38 8:49 min/m
13 79 Angie HAMANN 810 01:09:19 95 726 2:50 sec/100m 00:08:30 2 18 00:01:26 26 161 00:41:09 14.6 m/hr 7 101 00:01:38 3 28 00:16:34 8:17 min/m
14 80 Liz PAINTER 898 01:09:27 37 359 2:19 sec/100m 00:06:58 47 378 00:03:30 32 194 00:42:01 14.3 m/hr 21 205 00:01:56 1 5 00:15:00 7:30 min/m
15 86 Pia GROSSMANN 359 01:09:48 15 132 2:10 sec/100m 00:06:30 5 42 00:01:36 3 31 00:36:45 16.3 m/hr 11 142 00:01:47 45 381 00:23:08 11:34 min/m
16 90 Hayley KAZEN 394 01:10:07 45 395 2:21 sec/100m 00:07:03 9 75 00:01:51 35 228 00:42:53 14.0 m/hr 6 92 00:01:38 5 33 00:16:41 8:20 min/m
17 95 Paula FALK 802 01:10:18 4 33 1:59 sec/100m 00:05:58 61 512 00:04:08 18 126 00:39:55 15.0 m/hr 54 425 00:02:35 9 66 00:17:41 8:50 min/m
18 129 Meredith HARPER 210 01:12:04 8 74 2:05 sec/100m 00:06:15 51 438 00:03:44 25 159 00:41:06 14.6 m/hr 27 256 00:02:04 15 131 00:18:52 9:26 min/m
19 136 Kelli MULLEN 263 01:12:16 28 276 2:16 sec/100m 00:06:49 7 57 00:01:45 27 162 00:41:09 14.6 m/hr 1 21 00:01:13 33 282 00:21:19 10:39 min/m
20 145 Bo BRYAN 158 01:12:49 50 450 2:23 sec/100m 00:07:11 18 147 00:02:16 11 80 00:38:31 15.6 m/hr 23 214 00:01:58 43 369 00:22:51 11:25 min/m
21 147 Veronica LARSON 588 01:12:55 25 236 2:14 sec/100m 00:06:43 21 167 00:02:23 24 151 00:40:54 14.7 m/hr 35 311 00:02:14 28 246 00:20:39 10:19 min/m
22 158 Jeannie RODGERS 927 01:13:25 52 454 2:24 sec/100m 00:07:12 39 327 00:03:13 22 140 00:40:29 14.8 m/hr 38 317 00:02:15 24 222 00:20:13 10:06 min/m
23 165 Lee FACKLER 447 01:13:50 20 195 2:13 sec/100m 00:06:39 42 352 00:03:21 20 134 00:40:08 14.9 m/hr 75 573 00:03:15 27 233 00:20:25 10:12 min/m
24 168 Barbara TEMPLE 328 01:13:54 62 505 2:26 sec/100m 00:07:19 49 391 00:03:33 33 205 00:42:19 14.2 m/hr 10 118 00:01:43 16 139 00:18:57 9:28 min/m
25 174 Beth HENTGES 213 01:14:16 32 309 2:17 sec/100m 00:06:52 14 107 00:02:04 30 189 00:41:50 14.3 m/hr 34 310 00:02:14 31 278 00:21:14 10:37 min/m
26 175 Jessica SAAVEDRA 301 01:14:28 19 191 2:12 sec/100m 00:06:38 81 603 00:04:44 10 66 00:38:05 15.8 m/hr 84 647 00:03:43 32 280 00:21:16 10:38 min/m
27 204 Julia LEON 66 01:16:11 11 94 2:06 sec/100m 00:06:19 40 331 00:03:15 23 143 00:40:42 14.7 m/hr 83 643 00:03:41 38 330 00:22:12 11:06 min/m
28 206 Tanya STOKES 131 01:16:11 13 108 2:07 sec/100m 00:06:22 19 153 00:02:18 15 114 00:39:32 15.2 m/hr 49 386 00:02:26 61 494 00:25:30 12:45 min/m
29 220 Deanna FLANAGAN 620 01:16:55 12 105 2:07 sec/100m 00:06:22 30 238 00:02:45 13 86 00:38:49 15.5 m/hr 18 194 00:01:55 72 558 00:27:03 13:31 min/m
30 231 Shelly RILEY 959 01:17:14 81 653 2:39 sec/100m 00:07:58 34 275 00:02:58 29 187 00:41:50 14.3 m/hr 13 165 00:01:50 42 358 00:22:37 11:18 min/m
31 249 Deborah MILLER 632 01:17:56 96 729 2:50 sec/100m 00:08:32 48 390 00:03:33 44 323 00:45:43 13.1 m/hr 19 195 00:01:55 12 89 00:18:10 9:05 min/m
32 282 Yvonne MOORAD 723 01:19:40 78 630 2:36 sec/100m 00:07:50 33 259 00:02:50 40 271 00:43:56 13.7 m/hr 16 189 00:01:54 44 378 00:23:07 11:33 min/m
33 285 Sharri WINN 73 01:19:50 18 169 2:11 sec/100m 00:06:34 75 576 00:04:34 45 334 00:46:01 13.0 m/hr 62 494 00:02:52 22 184 00:19:47 9:53 min/m
34 287 Suzanne ECHEVARRIA 859 01:19:53 36 345 2:18 sec/100m 00:06:56 59 503 00:04:04 46 344 00:46:22 12.9 m/hr 36 312 00:02:14 25 225 00:20:15 10:07 min/m
35 288 Debbie ZAPATA 375 01:20:06 55 463 2:24 sec/100m 00:07:13 56 486 00:03:59 43 307 00:45:14 13.3 m/hr 91 680 00:04:02 19 177 00:19:36 9:48 min/m
36 293 Melissa ROGERS 889 01:20:21 34 327 2:18 sec/100m 00:06:54 64 529 00:04:12 47 352 00:46:31 12.9 m/hr 42 333 00:02:18 26 232 00:20:24 10:12 min/m
37 294 Elsa ORTIZ 271 01:20:36 74 584 2:32 sec/100m 00:07:36 57 489 00:04:00 31 193 00:41:58 14.3 m/hr 41 325 00:02:17 55 459 00:24:42 12:21 min/m
38 296 Jennifer PEREZ 956 01:20:40 65 518 2:27 sec/100m 00:07:22 83 652 00:05:10 62 459 00:50:08 12.0 m/hr 3 52 00:01:24 4 29 00:16:34 8:17 min/m
39 305 Sabrina BROWN 157 01:21:11 75 589 2:32 sec/100m 00:07:37 71 557 00:04:27 28 177 00:41:32 14.4 m/hr 81 623 00:03:34 51 427 00:23:59 11:59 min/m
40 314 Sandy SHANNON 568 01:21:27 101 754 3:03 sec/100m 00:09:11 25 192 00:02:31 34 215 00:42:31 14.1 m/hr 92 681 00:04:03 46 382 00:23:09 11:34 min/m
41 322 Shannon ALTIERI 950 01:21:50 33 320 2:17 sec/100m 00:06:53 66 543 00:04:19 48 353 00:46:37 12.9 m/hr 56 436 00:02:37 34 285 00:21:23 10:41 min/m
42 365 Mary STEED 963 01:24:02 69 550 2:29 sec/100m 00:07:29 43 360 00:03:24 21 137 00:40:20 14.9 m/hr 100 744 00:05:18 76 579 00:27:29 13:44 min/m
43 379 Shannon MILLS 256 01:24:34 26 240 2:14 sec/100m 00:06:44 85 657 00:05:15 54 392 00:47:43 12.6 m/hr 37 314 00:02:15 41 356 00:22:35 11:17 min/m
44 380 Shauna FENTON 803 01:24:41 56 482 2:25 sec/100m 00:07:16 58 494 00:04:01 37 254 00:43:25 13.8 m/hr 67 508 00:02:55 71 556 00:27:02 13:31 min/m
45 381 Jennifer LONG 84 01:24:47 2 23 1:58 sec/100m 00:05:55 87 673 00:05:22 38 259 00:43:32 13.8 m/hr 63 495 00:02:52 73 561 00:27:05 13:32 min/m
46 383 Tina ALLEN 13 01:24:50 71 560 2:30 sec/100m 00:07:31 44 363 00:03:24 39 265 00:43:45 13.7 m/hr 15 183 00:01:53 82 607 00:28:14 14:07 min/m
47 390 Alice DUNLAP 801 01:25:15 92 718 2:49 sec/100m 00:08:27 24 190 00:02:30 50 366 00:46:52 12.8 m/hr 22 207 00:01:57 60 492 00:25:28 12:44 min/m
48 396 Teri PIGOTT 281 01:25:36 80 638 2:37 sec/100m 00:07:53 38 304 00:03:07 49 361 00:46:48 12.8 m/hr 60 491 00:02:51 56 469 00:24:56 12:28 min/m
49 397 Tania HARDAWAY 348 01:25:40 23 229 2:14 sec/100m 00:06:42 76 588 00:04:39 59 450 00:49:55 12.0 m/hr 12 164 00:01:50 40 352 00:22:32 11:16 min/m
50 412 Laura ARRINGTON 402 01:26:35 43 384 2:20 sec/100m 00:07:01 41 348 00:03:20 36 244 00:43:12 13.9 m/hr 73 559 00:03:11 89 664 00:29:50 14:55 min/m
51 422 Trish JOSEPHS 816 01:27:05 21 209 2:13 sec/100m 00:06:41 60 509 00:04:06 61 457 00:50:07 12.0 m/hr 64 502 00:02:53 48 391 00:23:17 11:38 min/m
52 437 Julia WYNN 948 01:27:55 38 375 2:20 sec/100m 00:07:00 4 36 00:01:34 58 427 00:49:16 12.2 m/hr 90 670 00:03:56 67 525 00:26:07 13:03 min/m
53 439 Monique COHEN 792 01:28:03 16 136 2:10 sec/100m 00:06:30 78 599 00:04:42 63 466 00:50:34 11.9 m/hr 66 507 00:02:54 50 397 00:23:20 11:40 min/m
54 446 Rebecca LUTTE 245 01:28:28 47 405 2:21 sec/100m 00:07:04 54 463 00:03:52 65 479 00:51:01 11.8 m/hr 32 297 00:02:12 53 442 00:24:17 12:08 min/m
55 448 Suzanne MOTTIN 382 01:28:37 102 767 3:13 sec/100m 00:09:40 3 24 00:01:29 56 415 00:48:39 12.3 m/hr 61 493 00:02:51 65 510 00:25:56 12:58 min/m
56 453 Jennifer WILLAUER 653 01:28:54 31 301 2:17 sec/100m 00:06:51 65 532 00:04:13 51 369 00:46:59 12.8 m/hr 68 512 00:02:56 79 593 00:27:52 13:56 min/m
57 457 Suzan CORRAL 856 01:29:06 7 52 2:02 sec/100m 00:06:08 100 731 00:06:32 69 520 00:52:51 11.3 m/hr 93 687 00:04:06 18 165 00:19:27 9:43 min/m
58 465 Karen GRAMES 203 01:30:01 90 700 2:46 sec/100m 00:08:19 68 550 00:04:22 60 453 00:50:02 12.0 m/hr 24 219 00:01:58 58 487 00:25:18 12:39 min/m
59 468 Holly DUCOTE 617 01:30:10 82 658 2:39 sec/100m 00:07:59 91 689 00:05:42 42 275 00:44:02 13.6 m/hr 104 769 00:06:42 62 503 00:25:42 12:51 min/m
60 471 Lisa CASTRO 591 01:30:18 14 116 2:08 sec/100m 00:06:25 32 248 00:02:47 86 630 00:58:02 10.3 m/hr 28 272 00:02:07 30 263 00:20:54 10:27 min/m
61 478 Shelley SCHENK 309 01:30:30 83 669 2:41 sec/100m 00:08:03 93 694 00:05:44 41 273 00:44:01 13.6 m/hr 105 770 00:06:43 66 511 00:25:58 12:59 min/m
62 483 Stephanie MCGINNIS 698 01:30:39 58 488 2:25 sec/100m 00:07:17 67 548 00:04:21 80 582 00:55:27 10.8 m/hr 20 200 00:01:56 35 302 00:21:37 10:48 min/m
63 493 Teresa AIKEN 606 01:31:04 22 223 2:14 sec/100m 00:06:42 35 281 00:02:59 75 565 00:54:33 11.0 m/hr 9 112 00:01:42 57 480 00:25:06 12:33 min/m
64 494 Susan TURNEY 876 01:31:04 64 510 2:26 sec/100m 00:07:20 80 602 00:04:44 66 488 00:51:31 11.6 m/hr 26 244 00:02:03 59 490 00:25:24 12:42 min/m
65 517 Linda BERGLING 665 01:32:28 61 504 2:26 sec/100m 00:07:19 88 678 00:05:29 16 119 00:39:43 15.1 m/hr 101 749 00:05:31 102 751 00:34:24 17:12 min/m
66 530 Michele WETUSKI 933 01:33:28 68 539 2:29 sec/100m 00:07:27 74 569 00:04:31 70 531 00:53:04 11.3 m/hr 57 437 00:02:37 63 506 00:25:47 12:53 min/m
67 537 Lisa MOLKENBUHR 258 01:33:54 42 382 2:20 sec/100m 00:07:01 97 714 00:06:06 78 572 00:54:51 10.9 m/hr 94 688 00:04:07 36 306 00:21:47 10:53 min/m
68 539 Katie DUBOIS 91 01:34:02 27 254 2:15 sec/100m 00:06:46 98 728 00:06:30 57 422 00:49:01 12.2 m/hr 77 582 00:03:17 83 612 00:28:26 14:13 min/m
69 550 Jessica WYATT 344 01:34:54 54 461 2:24 sec/100m 00:07:13 72 558 00:04:28 79 576 00:55:12 10.9 m/hr 5 76 00:01:32 68 537 00:26:27 13:13 min/m
70 551 Tonya STILWELL 574 01:34:58 35 332 2:18 sec/100m 00:06:54 86 661 00:05:17 53 385 00:47:28 12.6 m/hr 72 527 00:03:00 100 712 00:32:17 16:08 min/m
71 552 Jeanette FIELDS 508 01:35:03 40 378 2:20 sec/100m 00:07:00 84 655 00:05:14 55 413 00:48:30 12.4 m/hr 25 227 00:02:00 99 711 00:32:17 16:08 min/m
72 553 Lisa WILLMON 113 01:35:06 87 681 2:43 sec/100m 00:08:11 96 710 00:05:56 52 372 00:47:06 12.7 m/hr 103 765 00:06:05 78 589 00:27:47 13:53 min/m
73 555 Kellye HEINZE 519 01:35:09 49 444 2:23 sec/100m 00:07:11 95 706 00:05:52 67 498 00:51:57 11.5 m/hr 80 612 00:03:31 70 545 00:26:36 13:18 min/m
74 557 Laurie SNODGRASS 647 01:35:16 63 508 2:26 sec/100m 00:07:20 94 704 00:05:49 68 499 00:52:00 11.5 m/hr 79 605 00:03:29 69 544 00:26:35 13:17 min/m
75 559 Alexia THEX 429 01:35:23 91 712 2:48 sec/100m 00:08:24 63 528 00:04:12 81 587 00:55:45 10.8 m/hr 48 383 00:02:26 54 448 00:24:34 12:17 min/m
76 566 Jennifer BIRDWELL 880 01:36:13 79 636 2:37 sec/100m 00:07:52 1 2 00:01:08 85 620 00:57:34 10.4 m/hr 86 654 00:03:45 64 509 00:25:51 12:55 min/m
77 569 Kirsten DAVENPORT 676 01:36:18 41 381 2:20 sec/100m 00:07:01 62 527 00:04:12 87 651 00:59:45 10.0 m/hr 69 513 00:02:57 39 341 00:22:21 11:10 min/m
78 579 Dalena WADLE 332 01:37:09 44 389 2:20 sec/100m 00:07:02 53 460 00:03:49 92 671 01:00:46 9.9 m/hr 44 346 00:02:20 47 385 00:23:10 11:35 min/m
79 599 Jean WAHL 333 01:38:11 72 563 2:30 sec/100m 00:07:32 92 692 00:05:43 64 475 00:50:53 11.8 m/hr 98 718 00:04:36 87 648 00:29:25 14:42 min/m
80 603 Michelle BANNERMAN 895 01:38:27 46 396 2:21 sec/100m 00:07:03 55 483 00:03:57 96 699 01:03:47 9.4 m/hr 59 469 00:02:44 29 261 00:20:53 10:26 min/m
81 606 Dionna HULSLANDER 814 01:38:52 73 580 2:32 sec/100m 00:07:36 70 555 00:04:25 83 594 00:56:08 10.7 m/hr 53 423 00:02:34 80 601 00:28:06 14:03 min/m
82 607 Robyn OLIVER 420 01:38:53 89 695 2:45 sec/100m 00:08:17 36 296 00:03:04 73 550 00:54:02 11.1 m/hr 65 504 00:02:53 91 682 00:30:35 15:17 min/m
83 609 Bonnie KRUEGER 529 01:39:09 94 725 2:50 sec/100m 00:08:30 45 368 00:03:26 77 569 00:54:44 11.0 m/hr 76 576 00:03:16 86 640 00:29:11 14:35 min/m
84 610 Patricia GIDDINGS 808 01:39:11 85 676 2:42 sec/100m 00:08:06 104 756 00:08:03 72 549 00:53:55 11.1 m/hr 102 757 00:05:46 49 394 00:23:18 11:39 min/m
85 611 Elizabeth WEST 581 01:39:14 84 675 2:41 sec/100m 00:08:05 79 600 00:04:42 71 536 00:53:08 11.3 m/hr 45 347 00:02:20 93 686 00:30:57 15:28 min/m
86 612 Jill CRAFT 941 01:39:27 70 553 2:30 sec/100m 00:07:31 82 650 00:05:08 93 683 01:01:58 9.7 m/hr 58 447 00:02:40 37 328 00:22:08 11:04 min/m
87 618 Sara ORVISS 829 01:40:00 57 483 2:25 sec/100m 00:07:16 52 449 00:03:46 88 654 00:59:55 10.0 m/hr 14 175 00:01:52 74 566 00:27:08 13:34 min/m
88 623 Cynthia FLORES 621 01:40:56 97 743 2:57 sec/100m 00:08:52 46 374 00:03:29 74 551 00:54:06 11.1 m/hr 78 590 00:03:22 95 692 00:31:05 15:32 min/m
89 647 Rachel HADDEN 518 01:43:48 48 409 2:21 sec/100m 00:07:05 73 560 00:04:29 89 659 01:00:18 9.9 m/hr 17 190 00:01:54 90 672 00:30:00 15:00 min/m
90 648 Nicole OWENS 274 01:43:52 17 151 2:10 sec/100m 00:06:32 10 76 00:01:52 95 692 01:02:33 9.6 m/hr 99 725 00:04:43 81 604 00:28:10 14:05 min/m
91 650 Roxanne KLEPPER 896 01:44:05                                    
92 652 Andrea NALL 897 01:44:16 51 451 2:24 sec/100m 00:07:12 90 688 00:05:40 82 593 00:56:05 10.7 m/hr 82 626 00:03:36 96 704 00:31:41 15:50 min/m
93 665 Elizabeth KNIGHT 39 01:45:50 103 775 3:23 sec/100m 00:10:10 89 679 00:05:29 76 568 00:54:41 11.0 m/hr 97 715 00:04:33 92 684 00:30:56 15:28 min/m
94 666 Charlotte SHARP 840 01:45:52 104 782 3:46 sec/100m 00:11:18 29 228 00:02:43 90 664 01:00:32 9.9 m/hr 87 657 00:03:49 75 578 00:27:29 13:44 min/m
95 667 Jerrie REFUERZO 926 01:45:58 53 455 2:24 sec/100m 00:07:12 102 744 00:06:48 91 667 01:00:36 9.9 m/hr 88 661 00:03:50 77 581 00:27:30 13:45 min/m
96 675 Valerie MUNIZ 758 01:47:12 93 719 2:49 sec/100m 00:08:27 50 396 00:03:34 97 701 01:03:49 9.4 m/hr 52 422 00:02:34 85 623 00:28:46 14:23 min/m
97 677 Donna SALEM 872 01:47:21                   00:00:00 m/hr 89 669 00:03:55 94 689 00:31:01 15:30 min/m
98 695 Elzbieta MCMURTRIE-JAYARAM 123 01:49:07 100 748 3:00 sec/100m 00:09:00 12 84 00:01:55 102 748 01:11:04 8.4 m/hr 71 524 00:02:59 52 432 00:24:07 12:03 min/m
99 700 Holly JURBERGS 358 01:49:40                                    
100 718 Deena DAVIDSON 942 01:52:46                                    
101 719 Wendy NUGENT 946 01:52:48 76 593 2:32 sec/100m 00:07:37 99 729 00:06:30 94 685 01:02:06 9.7 m/hr 96 706 00:04:28 98 710 00:32:04 16:02 min/m
102 723 Renee LARSON 530 01:53:22 99 745 2:57 sec/100m 00:08:53 103 755 00:07:58 84 608 00:56:58 10.5 m/hr 85 652 00:03:45 104 765 00:35:45 17:52 min/m
103 725 Lisa BECKMEIER 783 01:53:28 66 522 2:27 sec/100m 00:07:23 77 593 00:04:41 99 722 01:07:25 8.9 m/hr 95 700 00:04:22 88 655 00:29:34 14:47 min/m
104 726 Katherine CARVAJAL 669 01:53:28 98 744 2:57 sec/100m 00:08:52 6 46 00:01:40 98 708 01:04:32 9.3 m/hr 70 523 00:02:59 103 761 00:35:23 17:41 min/m
105 735 Beth HEATHINGTON 624 01:54:26 86 677 2:42 sec/100m 00:08:07 26 193 00:02:32 100 733 01:08:23 8.8 m/hr 55 432 00:02:36 101 722 00:32:46 16:23 min/m
106 738 Cristy WERNER 445 01:55:30 88 690 2:44 sec/100m 00:08:14 69 552 00:04:23 101 734 01:08:41 8.7 m/hr 47 368 00:02:24 97 707 00:31:46 15:53 min/m
107 744 Melissa AMICI 479 01:56:31 24 230 2:14 sec/100m 00:06:42 101 739 00:06:39 103 751 01:11:24 8.4 m/hr 74 560 00:03:11 84 618 00:28:32 14:16 min/m
108 787 Angela KING 691 02:16:14 77 619 2:36 sec/100m 00:07:48 17 130 00:02:10 104 767 01:18:45 7.6 m/hr 51 417 00:02:33 105 790 00:44:57 22:28 min/m
Ages 50 - 54
1 45 Jeannette GARCIA 191 01:06:58 3 50 2:02 sec/100m 00:06:06 21 239 00:02:45 3 48 00:37:34 16.0 m/hr 8 121 00:01:44 3 126 00:18:47 9:23 min/m
2 53 Dawn SANCHEZ 975 01:07:33 34 460 2:24 sec/100m 00:07:13 8 74 00:01:51 4 59 00:37:55 15.8 m/hr 1 55 00:01:24 8 149 00:19:08 9:34 min/m
3 74 Debbie COPLEY 77 01:08:59 10 102 2:07 sec/100m 00:06:21 3 9 00:01:15 7 106 00:39:19 15.3 m/hr 4 64 00:01:27 14 243 00:20:34 10:17 min/m
4 81 Diane LOUGHRAN 371 01:09:31 38 519 2:27 sec/100m 00:07:22 6 47 00:01:41 1 36 00:36:57 16.2 m/hr 17 265 00:02:06 18 286 00:21:24 10:42 min/m
5 82 Sara DOBBS 797 01:09:33 8 86 2:06 sec/100m 00:06:18 25 263 00:02:54 2 41 00:37:09 16.2 m/hr 41 548 00:03:08 12 210 00:20:03 10:01 min/m
6 91 Jennifer GLOVER 809 01:10:10 24 336 2:18 sec/100m 00:06:55 30 307 00:03:08 16 167 00:41:14 14.6 m/hr 2 56 00:01:24 2 58 00:17:26 8:43 min/m
7 108 Belinda FAIRBANKS 186 01:10:47 51 623 2:36 sec/100m 00:07:49 28 273 00:02:57 5 67 00:38:05 15.8 m/hr 10 174 00:01:52 11 207 00:20:02 10:01 min/m
8 115 Tamara CRAWFORD 673 01:11:16 5 68 2:04 sec/100m 00:06:12 18 216 00:02:38 17 168 00:41:15 14.5 m/hr 14 246 00:02:03 7 148 00:19:05 9:32 min/m
9 116 Renee SOTO 775 01:11:16 14 202 2:13 sec/100m 00:06:40 4 25 00:01:29 12 146 00:40:47 14.7 m/hr 38 539 00:03:03 9 153 00:19:15 9:37 min/m
10 117 Jeannie RALSTON 372 01:11:27 18 298 2:17 sec/100m 00:06:51 34 392 00:03:33 10 141 00:40:30 14.8 m/hr 5 73 00:01:31 6 144 00:19:01 9:30 min/m
11 128 Susan MORELLO 634 01:12:02 11 120 2:08 sec/100m 00:06:26 23 251 00:02:48 14 155 00:40:59 14.6 m/hr 35 505 00:02:54 4 133 00:18:53 9:26 min/m
12 143 Laurie OHALLA 360 01:12:49 7 84 2:06 sec/100m 00:06:18 53 596 00:04:42 8 125 00:39:54 15.0 m/hr 36 515 00:02:57 5 137 00:18:57 9:28 min/m
13 155 Catherine HOOVER 813 01:13:19 47 598 2:33 sec/100m 00:07:39 51 571 00:04:32 24 225 00:42:49 14.0 m/hr 19 298 00:02:12 1 20 00:16:05 8:02 min/m
14 176 Cindy BRAWLEY 154 01:14:31 1 22 1:58 sec/100m 00:05:54 12 166 00:02:23 20 175 00:41:30 14.5 m/hr 12 218 00:01:58 21 363 00:22:44 11:22 min/m
15 197 Elizabeth LORENZ 28 01:15:43 56 657 2:39 sec/100m 00:07:58 29 278 00:02:59 6 68 00:38:10 15.7 m/hr 28 454 00:02:42 27 424 00:23:53 11:56 min/m
16 200 Becky ACKLEY 141 01:15:52 6 82 2:05 sec/100m 00:06:17 27 270 00:02:56 23 222 00:42:47 14.0 m/hr 6 94 00:01:38 20 329 00:22:11 11:05 min/m
17 203 Pamela SPRAETZ 71 01:16:07 42 568 2:31 sec/100m 00:07:33 37 401 00:03:35 9 139 00:40:25 14.8 m/hr 24 419 00:02:34 19 322 00:21:58 10:59 min/m
18 209 Karen JEFFRIES 224 01:16:18 20 317 2:17 sec/100m 00:06:53 14 183 00:02:26 27 241 00:43:11 13.9 m/hr 30 472 00:02:45 16 269 00:21:01 10:30 min/m
19 225 Bonnie HYATT 917 01:17:08 29 392 2:20 sec/100m 00:07:02 49 534 00:04:13 25 226 00:42:50 14.0 m/hr 43 558 00:03:11 10 189 00:19:50 9:55 min/m
20 234 Maya ZANI 389 01:17:21 33 449 2:23 sec/100m 00:07:11 16 191 00:02:31 34 320 00:45:36 13.2 m/hr 3 58 00:01:25 15 244 00:20:36 10:18 min/m
21 235 Abbie HIGGINS 409 01:17:25 28 367 2:19 sec/100m 00:06:59 19 221 00:02:40 13 153 00:40:56 14.7 m/hr 32 478 00:02:46 28 428 00:24:03 12:01 min/m
22 239 Beth Ann WOOD 342 01:17:32 2 37 2:00 sec/100m 00:06:00 10 96 00:02:01 29 279 00:44:09 13.6 m/hr 16 252 00:02:04 23 392 00:23:17 11:38 min/m
23 244 Elaine BLAIN 403 01:17:41 46 595 2:33 sec/100m 00:07:39 17 201 00:02:34 18 170 00:41:19 14.5 m/hr 45 580 00:03:17 22 368 00:22:51 11:25 min/m
24 251 Jane IRELAND 222 01:18:06 30 394 2:21 sec/100m 00:07:03 15 189 00:02:29 15 164 00:41:11 14.6 m/hr 11 192 00:01:55 37 491 00:25:27 12:43 min/m
25 253 Debra CAGLE 162 01:18:12 19 308 2:17 sec/100m 00:06:52 1 5 00:01:11 32 294 00:44:41 13.4 m/hr 53 689 00:04:08 17 281 00:21:17 10:38 min/m
26 256 Sherri DAVIDSON 502 01:18:21 4 60 2:03 sec/100m 00:06:10 22 241 00:02:45 28 253 00:43:24 13.8 m/hr 23 377 00:02:25 25 415 00:23:35 11:47 min/m
27 275 Judy HESS 357 01:19:24 35 490 2:25 sec/100m 00:07:17 11 126 00:02:09 11 145 00:40:44 14.7 m/hr 40 543 00:03:06 42 524 00:26:06 13:03 min/m
28 302 Kelly SHOWALTER 712 01:20:53 39 526 2:28 sec/100m 00:07:24 45 492 00:04:00 26 239 00:43:05 13.9 m/hr 27 446 00:02:40 26 420 00:23:42 11:51 min/m
29 312 Theresa LOMPERSKI 935 01:21:26 26 342 2:18 sec/100m 00:06:56 40 446 00:03:46 22 208 00:42:21 14.2 m/hr 51 640 00:03:40 31 458 00:24:42 12:21 min/m
30 324 Dee BYNUM 786 01:21:51 17 274 2:16 sec/100m 00:06:48 47 519 00:04:10 30 290 00:44:32 13.5 m/hr 33 480 00:02:47 24 410 00:23:31 11:45 min/m
31 333 Denise GRACE 461 01:22:30 48 602 2:33 sec/100m 00:07:40 13 168 00:02:23 19 174 00:41:30 14.5 m/hr 47 591 00:03:23 47 583 00:27:33 13:46 min/m
32 338 Cindy KAHIL 752 01:22:39 21 318 2:17 sec/100m 00:06:53 32 339 00:03:19 43 449 00:49:53 12.0 m/hr 20 329 00:02:17 13 224 00:20:15 10:07 min/m
33 362 Betsy JACUNSKI 863 01:23:54 37 498 2:26 sec/100m 00:07:18 41 450 00:03:47 31 291 00:44:39 13.4 m/hr 34 488 00:02:50 36 488 00:25:18 12:39 min/m
34 367 Stephanie HEMINGWAY 625 01:24:12 61 720 2:49 sec/100m 00:08:27 42 466 00:03:52 21 181 00:41:39 14.4 m/hr 62 740 00:05:08 34 478 00:25:03 12:31 min/m
35 389 Lynn HEMMER 601 01:25:11 22 323 2:17 sec/100m 00:06:53 38 431 00:03:43 33 295 00:44:43 13.4 m/hr 18 285 00:02:10 48 587 00:27:41 13:50 min/m
36 399 Patti ABKOWITZ 903 01:25:53 15 232 2:14 sec/100m 00:06:43 36 398 00:03:34 37 397 00:47:54 12.5 m/hr 7 95 00:01:38 41 517 00:26:02 13:01 min/m
37 473 Temple NOBLE 85 01:30:20 12 171 2:11 sec/100m 00:06:35 52 590 00:04:40 41 439 00:49:40 12.1 m/hr 56 708 00:04:30 32 465 00:24:53 12:26 min/m
38 484 Patti FURMAN 189 01:30:40 41 551 2:30 sec/100m 00:07:30 7 50 00:01:41 45 471 00:50:47 11.8 m/hr 22 355 00:02:21 49 610 00:28:18 14:09 min/m
39 498 Steffanie HOLMAN 749 01:31:19 27 344 2:18 sec/100m 00:06:56 31 313 00:03:10 47 511 00:52:27 11.4 m/hr 50 627 00:03:36 35 482 00:25:07 12:33 min/m
40 505 Rebecca FRANKLIN 884 01:31:34 16 250 2:15 sec/100m 00:06:45 54 613 00:04:47 42 441 00:49:43 12.1 m/hr 42 553 00:03:09 44 562 00:27:07 13:33 min/m
41 523 Beth PICKETT 586 01:32:52 50 613 2:35 sec/100m 00:07:46 57 701 00:05:48 38 414 00:48:35 12.3 m/hr 58 724 00:04:39 40 516 00:26:02 13:01 min/m
42 531 Frances TORRES 34 01:33:40 54 647 2:38 sec/100m 00:07:56 56 675 00:05:25 35 340 00:46:15 13.0 m/hr 60 731 00:04:54 53 638 00:29:07 14:33 min/m
43 540 Miranda KELLY 689 01:34:10 59 708 2:47 sec/100m 00:08:22 20 235 00:02:44 49 561 00:54:28 11.0 m/hr 9 127 00:01:45 43 552 00:26:49 13:24 min/m
44 548 Joann HERNANDEZ 7 01:34:40 62 732 2:51 sec/100m 00:08:34 39 445 00:03:46 39 424 00:49:09 12.2 m/hr 63 755 00:05:43 46 576 00:27:26 13:43 min/m
45 560 Pamela PENNINGTON 278 01:35:34 25 340 2:18 sec/100m 00:06:56 46 516 00:04:09 54 616 00:57:23 10.5 m/hr 25 420 00:02:34 29 447 00:24:30 12:15 min/m
46 562 Angela GLASER 198 01:35:36 45 592 2:32 sec/100m 00:07:37 2 6 00:01:12 55 617 00:57:26 10.4 m/hr 13 240 00:02:02 45 572 00:27:17 13:38 min/m
47 565 Carla PURVIS 706 01:36:02 49 604 2:33 sec/100m 00:07:41 33 362 00:03:24 50 574 00:55:09 10.9 m/hr 54 692 00:04:10 38 497 00:25:36 12:48 min/m
48 567 Diana KELM 886 01:36:14 44 583 2:32 sec/100m 00:07:36 5 35 00:01:33 53 611 00:57:03 10.5 m/hr 55 696 00:04:17 39 502 00:25:42 12:51 min/m
49 571 Joye HAUN 861 01:36:22                                    
50 582 Kate BARTON 940 01:37:15                       44 561 00:03:12 59 701 00:31:35 15:47 min/m
51 592 Holly SCHWAB 890 01:37:50 32 412 2:21 sec/100m 00:07:05 44 485 00:03:59 48 533 00:53:05 11.3 m/hr 48 600 00:03:26 56 676 00:30:13 15:06 min/m
52 601 Nancy ADAMS 142 01:38:19 23 331 2:18 sec/100m 00:06:54 61 753 00:07:40 52 603 00:56:42 10.6 m/hr 21 344 00:02:20 30 456 00:24:41 12:20 min/m
53 613 Lennis CASANOVA 167 01:39:37 36 493 2:25 sec/100m 00:07:17 62 758 00:08:07 44 451 00:49:57 12.0 m/hr 59 730 00:04:48 55 646 00:29:25 14:42 min/m
54 617 Cynthia MAGNER 248 01:39:53 40 548 2:29 sec/100m 00:07:29 63 760 00:08:21 36 358 00:46:43 12.8 m/hr 65 776 00:07:54 54 644 00:29:23 14:41 min/m
55 632 Karla RING 834 01:42:20 58 706 2:47 sec/100m 00:08:22 35 394 00:03:34 60 680 01:01:47 9.7 m/hr 49 620 00:03:34 33 474 00:25:01 12:30 min/m
56 633 Aida EBERLE 858 01:42:27 9 90 2:06 sec/100m 00:06:19 59 726 00:06:26 56 636 00:58:20 10.3 m/hr 26 421 00:02:34 51 626 00:28:47 14:23 min/m
57 656 Deann OCONNER 923 01:44:45 57 688 2:44 sec/100m 00:08:13 48 522 00:04:11 40 428 00:49:16 12.2 m/hr 57 711 00:04:31 65 778 00:38:32 19:16 min/m
58 657 Anita BROCK 610 01:44:49 13 173